M I D A S
Marine Information and Data Acquisition System
Tripno 1608 of the Zeeleeuw from 2008-11-07 07:51:46 to 2008-11-07 12:14:58
Back to CruiseResearch ActivitiesStationsMapUnderway DataData graphs

EquipmentUnitsComment
TimeDGPSUTC
LatitudeDGPSDM.mWGS84
LongitudeDGPSDM.mWGS84
TemperatureSBE03/SBE38deg celciusITS90
ConductivitySBE21S/mITS90
SalinitySBE21 Practical Salinity Units
ChlorophylAChelsea fluorimeterg/lCalibrated in Aceton
Missing or incorrect values are displayed as -999
Sea surface data collected by the RV Zeeleeuw from 2008-11-07 07:19:33 to 2008-11-07 12:28:13
                                                                                    Next 1000 lines
Time Latitude Longitude Temperature Conductivity Salinity ChlorophylA
2008-11-07 07:19:43 51°13.624 2°56.053 -999 0.070302 0.389077 -1.035392
2008-11-07 07:19:48 51°13.624 2°56.053 -999 0.069993 0.387318 -1.035392
2008-11-07 07:19:53 51°13.623 2°56.052 -999 0.070096 0.38792 -1.035392
2008-11-07 07:19:58 51°13.623 2°56.051 -999 0.070405 0.389686 -1.035392
2008-11-07 07:20:03 51°13.622 2°56.049 -999 0.070405 0.389686 -1.035392
2008-11-07 07:20:08 51°13.622 2°56.049 -999 0.070096 0.387927 -1.035392
2008-11-07 07:20:13 51°13.622 2°56.049 -999 0.070302 0.389112 -1.035392
2008-11-07 07:20:18 51°13.622 2°56.048 -999 0.070302 0.389119 -1.035392
2008-11-07 07:20:23 51°13.622 2°56.048 -999 0.070199 0.388537 -1.035392
2008-11-07 07:20:27 51°13.622 2°56.049 -999 0.070096 0.387955 -1.035392
2008-11-07 07:20:33 51°13.622 2°56.049 -999 0.070714 0.391495 -1.035392
2008-11-07 07:20:38 51°13.623 2°56.049 -999 0.070714 0.391495 -1.035392
2008-11-07 07:20:43 51°13.623 2°56.049 -999 0.070405 0.389735 -1.035392
2008-11-07 07:20:47 51°13.623 2°56.049 -999 0.070096 0.387976 -1.035392
2008-11-07 07:20:53 51°13.623 2°56.049 -999 0.070302 0.389161 -1.035392
2008-11-07 07:20:58 51°13.623 2°56.049 -999 0.070405 0.389756 -1.035392
2008-11-07 07:21:03 51°13.623 2°56.049 -999 0.069993 0.387409 -1.035392
2008-11-07 07:21:08 51°13.623 2°56.049 -999 0.069993 0.387409 -1.035392
2008-11-07 07:21:13 51°13.623 2°56.048 -999 0.069993 0.387415 -1.035392
2008-11-07 07:21:18 51°13.623 2°56.048 -999 0.069788 0.386245 -1.035392
2008-11-07 07:21:23 51°13.623 2°56.048 -999 0.070096 0.388011 -1.035392
2008-11-07 07:21:27 51°13.623 2°56.048 -999 0.069582 0.385082 -1.035392
2008-11-07 07:21:33 51°13.623 2°56.049 -999 0.069582 0.385082 -1.035392
2008-11-07 07:21:38 51°13.623 2°56.048 -999 0.070096 0.388032 -1.035392
2008-11-07 07:21:43 51°13.623 2°56.048 -999 0.070096 0.388039 -1.070216
2008-11-07 07:21:48 51°13.623 2°56.048 -999 0.069685 0.385684 -1.035392
2008-11-07 07:21:53 51°13.623 2°56.048 -999 0.069582 0.385103 -1.035392
2008-11-07 07:21:58 51°13.623 2°56.048 -999 0.069993 0.387471 -1.035392
2008-11-07 07:22:03 51°13.623 2°56.048 -999 0.069993 0.387471 -1.035392
2008-11-07 07:22:08 51°13.623 2°56.049 -999 0.069993 0.387471 -1.035392
2008-11-07 07:22:13 51°13.623 2°56.049 -999 0.070096 0.388074 -1.070216
2008-11-07 07:22:18 51°13.624 2°56.049 -999 0.070302 0.389259 -1.035392
2008-11-07 07:22:23 51°13.624 2°56.048 -999 0.070096 0.388088 -1.070216
2008-11-07 07:22:27 51°13.624 2°56.048 -999 0.069582 0.385144 -1.035392
2008-11-07 07:22:33 51°13.624 2°56.049 -999 0.069788 0.386336 -1.035392
2008-11-07 07:22:38 51°13.624 2°56.049 -999 0.069788 0.386336 -1.035392
2008-11-07 07:22:43 51°13.624 2°56.048 -999 0.070096 0.388109 -1.035392
2008-11-07 07:22:47 51°13.624 2°56.048 -999 0.069479 0.384583 -1.070216
2008-11-07 07:22:53 51°13.624 2°56.048 -999 0.069376 0.384002 -1.035392
2008-11-07 07:22:58 51°13.624 2°56.048 -999 0.069376 0.384009 -1.035392
2008-11-07 07:23:03 51°13.624 2°56.048 -999 0.069685 0.385775 -1.035392
2008-11-07 07:23:07 51°13.624 2°56.048 -999 0.069685 0.385775 -1.035392
2008-11-07 07:23:13 51°13.624 2°56.048 -999 0.070199 0.388733 -1.035392
2008-11-07 07:23:18 51°13.624 2°56.048 -999 0.069479 0.384618 -1.035392
2008-11-07 07:23:23 51°13.624 2°56.048 -999 0.069993 0.387569 -1.035392
2008-11-07 07:23:28 51°13.624 2°56.048 -999 0.069993 0.387576 -1.035392
2008-11-07 07:23:33 51°13.624 2°56.048 -999 0.069993 0.387576 -1.035392
2008-11-07 07:23:38 51°13.624 2°56.048 -999 0.06989 0.386994 -1.035392
2008-11-07 07:23:43 51°13.624 2°56.048 -999 0.069685 0.385823 -1.035392
2008-11-07 07:23:48 51°13.625 2°56.048 -999 0.069479 0.384653 -1.035392
2008-11-07 07:23:53 51°13.624 2°56.048 -999 0.069376 0.384071 -1.035392
2008-11-07 07:23:58 51°13.624 2°56.048 -999 0.069788 0.386433 -1.035392
2008-11-07 07:24:03 51°13.624 2°56.048 -999 0.069685 0.385851 -1.035392
2008-11-07 07:24:08 51°13.624 2°56.048 -999 0.069685 0.385851 -1.035392
2008-11-07 07:24:13 51°13.624 2°56.048 -999 0.069582 0.385269 -1.035392
2008-11-07 07:24:18 51°13.624 2°56.048 -999 0.069582 0.385276 -1.035392
2008-11-07 07:24:23 51°13.624 2°56.049 -999 0.070096 0.388228 -1.035392
2008-11-07 07:24:27 51°13.624 2°56.048 -999 0.06989 0.387056 -1.035392
2008-11-07 07:24:33 51°13.624 2°56.049 -999 0.069685 0.385886 -1.035392
2008-11-07 07:24:38 51°13.624 2°56.049 -999 0.069685 0.385886 -1.035392
2008-11-07 07:24:43 51°13.624 2°56.049 -999 0.069376 0.384133 -1.035392
2008-11-07 07:24:48 51°13.625 2°56.049 -999 0.069479 0.384722 -1.035392
2008-11-07 07:24:53 51°13.624 2°56.049 -999 0.069582 0.385324 -1.035392
2008-11-07 07:24:58 51°13.624 2°56.049 -999 0.069685 0.38592 -1.035392
2008-11-07 07:25:03 51°13.624 2°56.049 -999 0.069685 0.38592 -1.035392
2008-11-07 07:25:07 51°13.624 2°56.049 -999 0.069376 0.384161 -1.035392
2008-11-07 07:25:12 51°13.624 2°56.048 -999 0.069376 0.384168 -1.070216
2008-11-07 07:25:18 51°13.624 2°56.048 -999 0.069582 0.385359 -1.070216
2008-11-07 07:25:23 51°13.624 2°56.048 -999 0.069685 0.385948 -1.035392
2008-11-07 07:25:27 51°13.624 2°56.048 -999 0.069685 0.385962 -1.035392
2008-11-07 07:25:33 51°13.624 2°56.048 -999 0.069685 0.385962 -1.035392
2008-11-07 07:25:38 51°13.625 2°56.048 -999 0.069067 0.382436 -1.035392
2008-11-07 07:25:43 51°13.625 2°56.048 -999 0.069273 0.38362 -1.035392
2008-11-07 07:25:48 51°13.625 2°56.048 -999 0.069479 0.384805 -1.035392
2008-11-07 07:25:53 51°13.625 2°56.048 -999 0.069788 0.386579 -1.035392
2008-11-07 07:25:58 51°13.625 2°56.048 -999 0.069479 0.384819 -1.035392
2008-11-07 07:26:03 51°13.625 2°56.048 -999 0.06917 0.383059 -1.035392
2008-11-07 07:26:07 51°13.625 2°56.048 -999 0.06917 0.383059 -1.035392
2008-11-07 07:26:13 51°13.625 2°56.048 -999 0.06917 0.383066 -1.035392
2008-11-07 07:26:18 51°13.625 2°56.048 -999 0.068758 0.380725 -1.035392
2008-11-07 07:26:23 51°13.625 2°56.048 -999 0.068758 0.380725 -1.070216
2008-11-07 07:26:28 51°13.625 2°56.048 -999 0.069273 0.383682 -1.035392
2008-11-07 07:26:33 51°13.625 2°56.048 -999 0.068553 0.379568 -1.035392
2008-11-07 07:26:38 51°13.625 2°56.048 -999 0.068553 0.379568 -1.035392
2008-11-07 07:26:43 51°13.625 2°56.048 -999 0.069067 0.382518 -1.035392
2008-11-07 07:26:48 51°13.625 2°56.048 -999 0.068861 0.381348 -1.035392
2008-11-07 07:26:53 51°13.625 2°56.047 -999 0.068861 0.381354 -1.035392
2008-11-07 07:26:58 51°13.625 2°56.047 -999 0.069685 0.38608 -1.035392
2008-11-07 07:27:03 51°13.625 2°56.047 -999 0.069685 0.38608 -1.035392
2008-11-07 07:27:07 51°13.625 2°56.047 -999 0.069479 0.384909 -1.035392
2008-11-07 07:27:13 51°13.625 2°56.047 -999 0.069376 0.384327 -1.035392
2008-11-07 07:27:18 51°13.625 2°56.047 -999 0.068861 0.381389 -1.035392
2008-11-07 07:27:23 51°13.625 2°56.048 -999 0.068758 0.380807 -1.035392
2008-11-07 07:27:27 51°13.625 2°56.048 -999 0.069376 0.384347 -1.035392
2008-11-07 07:27:33 51°13.624 2°56.047 -999 0.069376 0.384361 -1.035392
2008-11-07 07:27:38 51°13.624 2°56.047 -999 0.069376 0.384361 -1.035392
2008-11-07 07:27:43 51°13.625 2°56.048 -999 0.06917 0.383183 -1.070216
2008-11-07 07:27:48 51°13.625 2°56.049 -999 0.069376 0.384375 -1.070216
2008-11-07 07:27:53 51°13.625 2°56.049 -999 0.06917 0.383204 -1.035392
2008-11-07 07:27:58 51°13.625 2°56.05 -999 0.06845 0.379088 -1.035392
2008-11-07 07:28:03 51°13.626 2°56.05 -999 0.068656 0.380273 -1.035392
2008-11-07 07:28:07 51°13.626 2°56.051 -999 0.068656 0.380273 -1.035392
2008-11-07 07:28:13 51°13.626 2°56.05 -999 0.068656 0.380286 -1.035392
2008-11-07 07:28:18 51°13.625 2°56.049 -999 0.06845 0.379116 -1.035392
2008-11-07 07:28:23 51°13.625 2°56.049 -999 0.068758 0.380889 -1.035392
2008-11-07 07:28:28 51°13.624 2°56.048 -999 0.06845 0.379129 -1.035392
2008-11-07 07:28:33 51°13.624 2°56.048 -999 0.06845 0.379129 -1.035392
2008-11-07 07:28:38 51°13.624 2°56.048 -999 0.068758 0.380903 -1.035392
2008-11-07 07:28:43 51°13.624 2°56.048 -999 0.068861 0.381505 -1.035392
2008-11-07 07:28:48 51°13.624 2°56.049 -999 0.069067 0.38269 -1.035392
2008-11-07 07:28:53 51°13.625 2°56.049 -999 0.068553 0.379752 -1.035392
2008-11-07 07:28:58 51°13.625 2°56.049 -999 0.068347 0.378581 -1.035392
2008-11-07 07:29:03 51°13.625 2°56.049 -999 0.068347 0.378581 -1.035392
2008-11-07 07:29:08 51°13.625 2°56.05 -999 0.068656 0.380362 -1.035392
2008-11-07 07:29:13 51°13.625 2°56.049 -999 0.068758 0.380958 -1.035392
2008-11-07 07:29:18 51°13.625 2°56.049 -999 0.068758 0.380964 -1.035392
2008-11-07 07:29:23 51°13.625 2°56.049 -999 0.069479 0.385096 -1.070216
2008-11-07 07:29:27 51°13.625 2°56.049 -999 0.069376 0.38452 -1.035392
2008-11-07 07:29:33 51°13.625 2°56.049 -999 0.068553 0.379814 -1.035392
2008-11-07 07:29:38 51°13.625 2°56.049 -999 0.068553 0.379814 -1.035392
2008-11-07 07:29:43 51°13.625 2°56.049 -999 0.068347 0.378643 -1.035392
2008-11-07 07:29:47 51°13.625 2°56.049 -999 0.068758 0.381006 -1.035392
2008-11-07 07:29:53 51°13.625 2°56.049 -999 0.068964 0.382198 -1.035392
2008-11-07 07:29:58 51°13.625 2°56.049 -999 0.068861 0.381615 -1.035392
2008-11-07 07:30:03 51°13.625 2°56.049 -999 0.068553 0.379855 -1.070216
2008-11-07 07:30:07 51°13.625 2°56.048 -999 0.068553 0.379855 -1.070216
2008-11-07 07:30:13 51°13.625 2°56.048 -999 0.06845 0.379273 -1.035392
2008-11-07 07:30:18 51°13.625 2°56.048 -999 0.068347 0.378697 -1.035392
2008-11-07 07:30:23 51°13.625 2°56.048 -999 0.068964 0.382239 -1.035392
2008-11-07 07:30:27 51°13.625 2°56.048 -999 0.068861 0.381657 -1.035392
2008-11-07 07:30:33 51°13.625 2°56.048 -999 0.068861 0.381657 -1.035392
2008-11-07 07:30:38 51°13.625 2°56.048 -999 0.068553 0.379903 -1.035392
2008-11-07 07:30:43 51°13.625 2°56.048 -999 0.067832 0.375787 -1.035392
2008-11-07 07:30:48 51°13.625 2°56.048 -999 0.068038 0.376971 -1.035392
2008-11-07 07:30:53 51°13.625 2°56.048 -999 0.068244 0.378156 -1.035392
2008-11-07 07:30:58 51°13.625 2°56.048 -999 0.068758 0.381109 -1.035392
2008-11-07 07:31:03 51°13.625 2°56.048 -999 0.068758 0.381109 -1.035392
2008-11-07 07:31:08 51°13.625 2°56.048 -999 0.068244 0.378176 -1.035392
2008-11-07 07:31:13 51°13.625 2°56.048 -999 0.068141 0.377594 -1.035392
2008-11-07 07:31:18 51°13.625 2°56.048 -999 0.067935 0.376423 -1.035392
2008-11-07 07:31:23 51°13.625 2°56.048 -999 0.068141 0.377608 -1.035392
2008-11-07 07:31:28 51°13.625 2°56.048 -999 0.068244 0.378211 -1.035392
2008-11-07 07:31:33 51°13.624 2°56.048 -999 0.06845 0.379396 -1.035392
2008-11-07 07:31:38 51°13.624 2°56.048 -999 0.06845 0.379396 -1.035392
2008-11-07 07:31:43 51°13.624 2°56.048 -999 0.068141 0.377635 -1.070216
2008-11-07 07:31:47 51°13.624 2°56.048 -999 0.067935 0.376464 -1.035392
2008-11-07 07:31:53 51°13.624 2°56.048 -999 0.068347 0.378827 -1.035392
2008-11-07 07:31:58 51°13.624 2°56.048 -999 0.068141 0.377662 -1.035392
2008-11-07 07:32:03 51°13.624 2°56.048 -999 0.068141 0.377662 -1.035392
2008-11-07 07:32:07 51°13.624 2°56.049 -999 0.068347 0.378847 -1.035392
2008-11-07 07:32:13 51°13.624 2°56.049 -999 0.06845 0.37945 -1.035392
2008-11-07 07:32:18 51°13.624 2°56.049 -999 0.068141 0.377689 -1.035392
2008-11-07 07:32:23 51°13.624 2°56.049 -999 0.068141 0.377696 -1.035392
2008-11-07 07:32:27 51°13.624 2°56.049 -999 0.068038 0.377114 -1.035392
2008-11-07 07:32:33 51°13.624 2°56.049 -999 0.068038 0.377114 -1.035392
2008-11-07 07:32:38 51°13.624 2°56.049 -999 0.067832 0.375942 -1.035392
2008-11-07 07:32:43 51°13.624 2°56.049 -999 0.067729 0.37536 -1.035392
2008-11-07 07:32:48 51°13.624 2°56.049 -999 0.067626 0.374785 -1.035392
2008-11-07 07:32:53 51°13.624 2°56.049 -999 0.067626 0.374791 -1.035392
2008-11-07 07:32:58 51°13.625 2°56.049 -999 0.067729 0.375387 -1.035392
2008-11-07 07:33:03 51°13.625 2°56.049 -999 0.067626 0.374805 -1.035392
2008-11-07 07:33:08 51°13.625 2°56.049 -999 0.067626 0.374805 -1.035392
2008-11-07 07:33:13 51°13.625 2°56.049 -999 0.067729 0.375401 -1.035392
2008-11-07 07:33:18 51°13.625 2°56.049 -999 0.067935 0.376586 -1.035392
2008-11-07 07:33:23 51°13.624 2°56.049 -999 0.067729 0.375421 -1.070216
2008-11-07 07:33:28 51°13.624 2°56.049 -999 0.067729 0.375428 -1.035392
2008-11-07 07:33:33 51°13.624 2°56.049 -999 0.067729 0.375435 -1.070216
2008-11-07 07:33:38 51°13.624 2°56.048 -999 0.067729 0.375435 -1.070216
2008-11-07 07:33:43 51°13.624 2°56.049 -999 0.067626 0.374852 -1.035392
2008-11-07 07:33:48 51°13.624 2°56.048 -999 0.067832 0.376037 -1.035392
2008-11-07 07:33:53 51°13.624 2°56.048 -999 0.067832 0.376051 -1.035392
2008-11-07 07:33:58 51°13.624 2°56.048 -999 0.067832 0.376058 -1.035392
2008-11-07 07:34:03 51°13.624 2°56.048 -999 0.067832 0.376058 -1.035392
2008-11-07 07:34:07 51°13.624 2°56.048 -999 0.067935 0.376654 -1.035392
2008-11-07 07:34:13 51°13.624 2°56.049 -999 0.067626 0.374893 -1.035392
2008-11-07 07:34:18 51°13.624 2°56.049 -999 0.067832 0.376085 -1.035392
2008-11-07 07:34:23 51°13.624 2°56.049 -999 0.067729 0.375495 -1.035392
2008-11-07 07:34:27 51°13.624 2°56.049 -999 0.067729 0.375509 -1.035392
2008-11-07 07:34:33 51°13.624 2°56.049 -999 0.067729 0.375509 -1.035392
2008-11-07 07:34:38 51°13.624 2°56.049 -999 0.067626 0.374927 -1.035392
2008-11-07 07:34:43 51°13.624 2°56.049 -999 0.067626 0.374933 -1.035392
2008-11-07 07:34:47 51°13.624 2°56.049 -999 0.067626 0.374947 -1.035392
2008-11-07 07:34:53 51°13.624 2°56.049 -999 0.067524 0.374364 -1.035392
2008-11-07 07:34:58 51°13.624 2°56.049 -999 0.067421 0.373789 -1.035392
2008-11-07 07:35:03 51°13.624 2°56.049 -999 0.067215 0.37261 -1.035392
2008-11-07 07:35:08 51°13.624 2°56.049 -999 0.067215 0.37261 -1.035392
2008-11-07 07:35:13 51°13.624 2°56.049 -999 0.067215 0.372617 -1.035392
2008-11-07 07:35:18 51°13.624 2°56.049 -999 0.067318 0.37322 -1.035392
2008-11-07 07:35:23 51°13.623 2°56.049 -999 0.067318 0.373226 -1.035392
2008-11-07 07:35:28 51°13.624 2°56.049 -999 0.067626 0.375001 -1.035392
2008-11-07 07:35:33 51°13.623 2°56.05 -999 0.067626 0.375001 -1.035392
2008-11-07 07:35:38 51°13.623 2°56.05 -999 0.067009 0.371479 -1.035392
2008-11-07 07:35:43 51°13.623 2°56.05 -999 0.067421 0.373843 -1.035392
2008-11-07 07:35:48 51°13.623 2°56.05 -999 0.067626 0.375028 -1.035392
2008-11-07 07:35:53 51°13.623 2°56.05 -999 0.067009 0.371499 -1.035392
2008-11-07 07:35:58 51°13.623 2°56.05 -999 0.067215 0.372684 -1.035392
2008-11-07 07:36:03 51°13.623 2°56.05 -999 0.067215 0.372684 -1.035392
2008-11-07 07:36:08 51°13.623 2°56.05 -999 0.067318 0.373287 -1.035392
2008-11-07 07:36:13 51°13.623 2°56.05 -999 0.067112 0.372115 -1.035392
2008-11-07 07:36:18 51°13.623 2°56.05 -999 0.067421 0.37389 -1.035392
2008-11-07 07:36:23 51°13.623 2°56.05 -999 0.067318 0.373307 -1.035392
2008-11-07 07:36:27 51°13.623 2°56.05 -999 0.067215 0.372731 -1.035392
2008-11-07 07:36:33 51°13.623 2°56.05 -999 0.066906 0.370964 -1.035392
2008-11-07 07:36:38 51°13.623 2°56.05 -999 0.066906 0.370964 -1.035392
2008-11-07 07:36:43 51°13.623 2°56.05 -999 0.067009 0.371566 -1.035392
2008-11-07 07:36:47 51°13.623 2°56.05 -999 0.066906 0.370984 -1.035392
2008-11-07 07:36:53 51°13.623 2°56.05 -999 0.067112 0.372176 -1.035392
2008-11-07 07:36:58 51°13.623 2°56.05 -999 0.067009 0.371593 -1.070216
2008-11-07 07:37:03 51°13.623 2°56.05 -999 0.067009 0.371606 -1.035392
2008-11-07 07:37:07 51°13.623 2°56.05 -999 0.067009 0.371606 -1.035392
2008-11-07 07:37:13 51°13.623 2°56.05 -999 0.067215 0.372792 -1.035392
2008-11-07 07:37:18 51°13.623 2°56.05 -999 0.066803 0.370441 -1.035392
2008-11-07 07:37:23 51°13.623 2°56.05 -999 0.067009 0.371626 -1.035392
2008-11-07 07:37:28 51°13.623 2°56.05 -999 0.066906 0.371044 -1.070216
2008-11-07 07:37:33 51°13.623 2°56.05 -999 0.066906 0.371044 -1.070216
2008-11-07 07:37:38 51°13.623 2°56.05 -999 0.066803 0.370468 -1.035392
2008-11-07 07:37:43 51°13.623 2°56.05 -999 0.066803 0.370475 -1.035392
2008-11-07 07:37:48 51°13.623 2°56.05 -999 0.0667 0.369892 -1.035392
2008-11-07 07:37:53 51°13.623 2°56.05 -999 0.066597 0.369316 -1.035392
2008-11-07 07:37:58 51°13.623 2°56.05 -999 0.066186 0.366966 -1.035392
2008-11-07 07:38:03 51°13.623 2°56.05 -999 0.066186 0.366966 -1.035392
2008-11-07 07:38:08 51°13.623 2°56.05 -999 0.066289 0.367562 -1.035392
2008-11-07 07:38:13 51°13.623 2°56.05 -999 0.066494 0.368747 -1.035392
2008-11-07 07:38:18 51°13.623 2°56.05 -999 0.066392 0.368164 -1.035392
2008-11-07 07:38:23 51°13.623 2°56.049 -999 0.066494 0.368767 -1.035392
2008-11-07 07:38:28 51°13.623 2°56.049 -999 0.0667 0.369952 -1.035392
2008-11-07 07:38:33 51°13.623 2°56.049 -999 0.066906 0.371138 -1.035392
2008-11-07 07:38:38 51°13.623 2°56.049 -999 0.066906 0.371138 -1.035392
2008-11-07 07:38:43 51°13.623 2°56.049 -999 0.0667 0.369972 -1.035392
2008-11-07 07:38:47 51°13.623 2°56.049 -999 0.066392 0.368211 -1.035392
2008-11-07 07:38:53 51°13.623 2°56.049 -999 0.066186 0.367039 -1.035392
2008-11-07 07:38:58 51°13.623 2°56.049 -999 0.066392 0.368224 -1.035392
2008-11-07 07:39:03 51°13.623 2°56.049 -999 0.066392 0.368238 -1.035392
2008-11-07 07:39:07 51°13.623 2°56.049 -999 0.066392 0.368238 -1.035392
2008-11-07 07:39:13 51°13.624 2°56.049 -999 0.066392 0.368238 -1.035392
2008-11-07 07:39:18 51°13.624 2°56.049 -999 0.066289 0.367662 -1.035392
2008-11-07 07:39:23 51°13.624 2°56.049 -999 0.066392 0.368257 -1.035392
2008-11-07 07:39:28 51°13.624 2°56.049 -999 0.066186 0.367092 -1.035392
2008-11-07 07:39:33 51°13.624 2°56.049 -999 0.066186 0.367092 -1.035392
2008-11-07 07:39:38 51°13.624 2°56.049 -999 0.066597 0.369456 -1.035392
2008-11-07 07:39:43 51°13.623 2°56.049 -999 0.066186 0.367105 -1.035392
2008-11-07 07:39:48 51°13.623 2°56.049 -999 0.066392 0.368291 -1.035392
2008-11-07 07:39:53 51°13.623 2°56.049 -999 0.066494 0.368893 -1.070216
2008-11-07 07:39:58 51°13.623 2°56.049 -999 0.066289 0.367721 -1.035392
2008-11-07 07:40:03 51°13.623 2°56.049 -999 0.066289 0.367721 -1.035392
2008-11-07 07:40:08 51°13.623 2°56.049 -999 0.066392 0.368317 -1.035392
2008-11-07 07:40:13 51°13.623 2°56.049 -999 0.066083 0.366562 -1.070216
2008-11-07 07:40:18 51°13.623 2°56.049 -999 0.066289 0.367748 -1.035392
2008-11-07 07:40:23 51°13.623 2°56.049 -999 0.066392 0.368344 -1.035392
2008-11-07 07:40:28 51°13.623 2°56.05 -999 0.066186 0.367172 -1.035392
2008-11-07 07:40:33 51°13.623 2°56.05 -999 0.066392 0.368364 -1.035392
2008-11-07 07:40:38 51°13.623 2°56.05 -999 0.066392 0.368364 -1.035392
2008-11-07 07:40:43 51°13.623 2°56.05 -999 0.066289 0.367781 -1.035392
2008-11-07 07:40:47 51°13.623 2°56.05 -999 0.06598 0.366019 -1.035392
2008-11-07 07:40:53 51°13.623 2°56.05 -999 0.066186 0.367211 -1.070216
2008-11-07 07:40:58 51°13.623 2°56.05 -999 0.065877 0.36545 -1.035392
2008-11-07 07:41:03 51°13.623 2°56.05 -999 0.065877 0.36545 -1.035392
2008-11-07 07:41:07 51°13.623 2°56.05 -999 0.066083 0.366635 -1.070216
2008-11-07 07:41:13 51°13.623 2°56.049 -999 0.066186 0.367231 -1.070216
2008-11-07 07:41:18 51°13.623 2°56.049 -999 0.066083 0.366655 -1.070216
2008-11-07 07:41:23 51°13.623 2°56.049 -999 0.06598 0.366072 -1.035392
2008-11-07 07:41:27 51°13.623 2°56.049 -999 0.06598 0.366086 -1.035392
2008-11-07 07:41:33 51°13.623 2°56.049 -999 0.06598 0.366086 -1.035392
2008-11-07 07:41:38 51°13.623 2°56.049 -999 0.065877 0.365503 -1.035392
2008-11-07 07:41:43 51°13.623 2°56.049 -999 0.066083 0.366688 -1.035392
2008-11-07 07:41:48 51°13.623 2°56.05 -999 0.065568 0.363748 -1.070216
2008-11-07 07:41:53 51°13.623 2°56.05 -999 0.065671 0.36435 -1.035392
2008-11-07 07:41:58 51°13.623 2°56.05 -999 0.066186 0.367304 -1.035392
2008-11-07 07:42:03 51°13.623 2°56.05 -999 0.065877 0.365549 -1.035392
2008-11-07 07:42:07 51°13.623 2°56.05 -999 0.065877 0.365549 -1.035392
2008-11-07 07:42:13 51°13.623 2°56.05 -999 0.065877 0.365555 -1.035392
2008-11-07 07:42:18 51°13.623 2°56.05 -999 0.065774 0.364973 -1.035392
2008-11-07 07:42:23 51°13.623 2°56.05 -999 0.06598 0.366158 -1.070216
2008-11-07 07:42:28 51°13.623 2°56.05 -999 0.06598 0.366165 -1.070216
2008-11-07 07:42:33 51°13.623 2°56.05 -999 0.06598 0.366178 -1.035392
2008-11-07 07:42:38 51°13.623 2°56.05 -999 0.06598 0.366178 -1.035392
2008-11-07 07:42:43 51°13.623 2°56.05 -999 0.066186 0.367364 -1.035392
2008-11-07 07:42:48 51°13.623 2°56.05 -999 0.06598 0.366191 -1.035392
2008-11-07 07:42:53 51°13.624 2°56.05 -999 0.06598 0.366204 -1.035392
2008-11-07 07:42:58 51°13.624 2°56.05 -999 0.065465 0.363264 -1.035392
2008-11-07 07:43:03 51°13.624 2°56.05 -999 0.065465 0.363264 -1.035392
2008-11-07 07:43:07 51°13.624 2°56.05 -999 0.065671 0.364449 -1.035392
2008-11-07 07:43:13 51°13.624 2°56.05 -999 0.065877 0.365641 -1.035392
2008-11-07 07:43:18 51°13.624 2°56.05 -999 0.065877 0.365648 -1.035392
2008-11-07 07:43:23 51°13.624 2°56.05 -999 0.06598 0.366251 -1.035392
2008-11-07 07:43:27 51°13.624 2°56.05 -999 0.06598 0.366257 -1.070216
2008-11-07 07:43:33 51°13.623 2°56.05 -999 0.06598 0.366257 -1.070216
2008-11-07 07:43:38 51°13.623 2°56.05 -999 0.065877 0.365674 -1.070216
2008-11-07 07:43:43 51°13.623 2°56.049 -999 0.065877 0.365681 -1.035392
2008-11-07 07:43:48 51°13.623 2°56.049 -999 0.065877 0.365687 -1.035392
2008-11-07 07:43:53 51°13.623 2°56.049 -999 0.065568 0.363932 -1.070216
2008-11-07 07:43:58 51°13.623 2°56.049 -999 0.06598 0.366297 -1.035392
2008-11-07 07:44:03 51°13.623 2°56.049 -999 0.065259 0.362183 -1.035392
2008-11-07 07:44:07 51°13.622 2°56.048 -999 0.065259 0.362183 -1.035392
2008-11-07 07:44:13 51°13.622 2°56.047 -999 0.065568 0.363958 -1.035392
2008-11-07 07:44:18 51°13.621 2°56.047 -999 0.065568 0.363965 -1.070216
2008-11-07 07:44:23 51°13.621 2°56.047 -999 0.065568 0.363971 -1.035392
2008-11-07 07:44:28 51°13.622 2°56.047 -999 0.065259 0.362216 -1.035392
2008-11-07 07:44:33 51°13.622 2°56.048 -999 0.065157 0.361633 -1.035392
2008-11-07 07:44:38 51°13.623 2°56.048 -999 0.065157 0.361633 -1.035392
2008-11-07 07:44:43 51°13.624 2°56.048 -999 0.065054 0.361056 -1.070216
2008-11-07 07:44:48 51°13.626 2°56.048 -999 0.065362 0.362831 -1.035392
2008-11-07 07:44:53 51°13.626 2°56.049 -999 0.065465 0.363428 -1.035392
2008-11-07 07:44:58 51°13.626 2°56.049 -999 0.065465 0.363434 -1.035392
2008-11-07 07:45:03 51°13.627 2°56.049 -999 0.065465 0.363434 -1.035392
2008-11-07 07:45:08 51°13.627 2°56.049 -999 0.065465 0.363447 -1.035392
2008-11-07 07:45:13 51°13.627 2°56.049 -999 0.065157 0.361685 -1.070216
2008-11-07 07:45:18 51°13.627 2°56.049 -999 0.065362 0.362871 -1.035392
2008-11-07 07:45:23 51°13.627 2°56.049 -999 0.065465 0.363474 -1.070216
2008-11-07 07:45:27 51°13.627 2°56.049 -999 0.065362 0.36289 -1.035392
2008-11-07 07:45:33 51°13.625 2°56.048 -999 0.06598 0.366436 -1.035392
2008-11-07 07:45:38 51°13.624 2°56.048 -999 0.06598 0.366436 -1.035392
2008-11-07 07:45:43 51°13.623 2°56.048 -999 0.066392 0.36881 -1.035392
2008-11-07 07:45:48 51°13.622 2°56.048 -999 0.065877 0.365866 -1.035392
2008-11-07 07:45:53 51°13.622 2°56.048 -999 0.066186 0.367649 -1.070216
2008-11-07 07:45:58 51°13.622 2°56.048 -999 0.066083 0.367066 -1.070216
2008-11-07 07:46:03 51°13.622 2°56.048 -999 0.065877 0.365899 -1.035392
2008-11-07 07:46:07 51°13.621 2°56.048 -999 0.065877 0.365899 -1.035392
2008-11-07 07:46:13 51°13.621 2°56.048 -999 0.066083 0.367086 -1.035392
2008-11-07 07:46:18 51°13.621 2°56.048 -999 0.066494 0.369453 -1.035392
2008-11-07 07:46:23 51°13.621 2°56.048 -999 0.066186 0.367689 -1.035392
2008-11-07 07:46:27 51°13.621 2°56.048 -999 0.066186 0.367696 -1.035392
2008-11-07 07:46:33 51°13.621 2°56.048 -999 0.066186 0.367696 -1.035392
2008-11-07 07:46:38 51°13.621 2°56.048 -999 0.06526 0.362392 -1.070216
2008-11-07 07:46:43 51°13.621 2°56.047 -999 0.061966 0.34354 -1.035392
2008-11-07 07:46:48 51°13.622 2°56.045 -999 0.062275 0.345311 -1.035392
2008-11-07 07:46:53 51°13.622 2°56.042 -999 0.06279 0.348253 -1.035392
2008-11-07 07:46:58 51°13.623 2°56.037 -999 0.064333 0.357093 -1.035392
2008-11-07 07:47:03 51°13.624 2°56.033 -999 0.065877 0.365952 -1.035392
2008-11-07 07:47:08 51°13.626 2°56.027 -999 0.065877 0.365952 -1.035392
2008-11-07 07:47:13 51°13.627 2°56.021 -999 0.062481 0.346512 -1.035392
2008-11-07 07:47:18 51°13.629 2°56.015 -999 0.063098 0.350056 -1.035392
2008-11-07 07:47:23 51°13.63 2°56.008 -999 0.061863 0.342995 -1.035392
2008-11-07 07:47:28 51°13.632 2°56 -999 0.061761 0.342413 -1.035392
2008-11-07 07:47:33 51°13.634 2°55.992 -999 0.062584 0.347132 -1.035392
2008-11-07 07:47:38 51°13.636 2°55.984 -999 0.062584 0.347132 -1.035392
2008-11-07 07:47:43 51°13.638 2°55.976 -999 0.063407 0.351848 -1.035392
2008-11-07 07:47:48 51°13.64 2°55.967 -999 0.061658 0.341856 -1.070216
2008-11-07 07:47:53 51°13.642 2°55.958 -999 0.061349 0.340098 -1.070216
2008-11-07 07:47:58 51°13.644 2°55.949 -999 0.060629 0.33599 -1.035392
2008-11-07 07:48:03 51°13.646 2°55.939 -999 0.062069 0.344234 -1.035392
2008-11-07 07:48:08 51°13.649 2°55.93 -999 0.062069 0.344234 -1.035392
2008-11-07 07:48:13 51°13.651 2°55.92 -999 0.062584 0.347188 -1.035392
2008-11-07 07:48:18 51°13.654 2°55.909 -999 0.061863 0.343082 -1.070216
2008-11-07 07:48:23 51°13.656 2°55.899 -999 0.06423 0.356639 -1.035392
2008-11-07 07:48:28 51°13.659 2°55.889 -999 0.062893 0.348992 -1.070216
2008-11-07 07:48:33 51°13.662 2°55.879 -999 0.062893 0.348992 -1.070216
2008-11-07 07:48:38 51°13.665 2°55.868 -999 0.06279 0.34841 -1.035392
2008-11-07 07:48:43 51°13.667 2°55.858 -999 0.063098 0.350183 -1.035392
2008-11-07 07:48:48 51°13.67 2°55.848 -999 0.063819 0.354313 -1.035392
2008-11-07 07:48:53 51°13.673 2°55.838 -999 0.065362 0.363172 -1.070216
2008-11-07 07:48:58 51°13.675 2°55.828 -999 0.065671 0.364956 -1.035392
2008-11-07 07:49:03 51°13.677 2°55.819 -999 0.065877 0.36615 -1.035392
2008-11-07 07:49:08 51°13.679 2°55.81 -999 0.065877 0.36615 -1.035392
2008-11-07 07:49:13 51°13.681 2°55.802 -999 0.065465 0.363796 -1.070216
2008-11-07 07:49:18 51°13.683 2°55.794 -999 0.064951 0.360858 -1.070216
2008-11-07 07:49:23 51°13.684 2°55.786 -999 0.064333 0.357319 -1.035392
2008-11-07 07:49:28 51°13.686 2°55.779 -999 0.064951 0.360864 -1.070216
2008-11-07 07:49:33 51°13.687 2°55.771 -999 0.066803 0.371507 -1.070216
2008-11-07 07:49:38 51°13.688 2°55.764 -999 0.066803 0.371507 -1.070216
2008-11-07 07:49:43 51°13.689 2°55.757 -999 0.066803 0.371513 -1.035392
2008-11-07 07:49:47 51°13.689 2°55.752 -999 0.066186 0.367975 -1.070216
2008-11-07 07:49:53 51°13.69 2°55.745 -999 0.066803 0.371534 -1.035392
2008-11-07 07:49:58 51°13.69 2°55.74 -999 0.063407 0.352058 -1.035392
2008-11-07 07:50:03 51°13.69 2°55.736 -999 0.065774 0.365633 -1.070216
2008-11-07 07:50:07 51°13.69 2°55.732 -999 0.065774 0.365633 -1.070216
2008-11-07 07:50:13 51°13.69 2°55.728 -999 0.066494 0.369781 -1.035392
2008-11-07 07:50:18 51°13.69 2°55.724 -999 0.0667 0.370976 -1.035392
2008-11-07 07:50:23 51°13.691 2°55.722 -999 0.068553 0.381629 -1.035392
2008-11-07 07:50:27 51°13.691 2°55.72 -999 0.068244 0.379867 -1.035392
2008-11-07 07:50:33 51°13.691 2°55.719 -999 0.068244 0.379867 -1.035392
2008-11-07 07:50:38 51°13.692 2°55.719 -999 0.073287 0.408938 -1.035392
2008-11-07 07:50:43 51°13.694 2°55.721 -999 0.100044 0.56494 -1.035392
2008-11-07 07:50:47 51°13.695 2°55.722 -999 0.103441 0.584983 -1.035392
2008-11-07 07:50:53 51°13.699 2°55.725 -999 0.118878 0.676339 -1.035392
2008-11-07 07:50:58 51°13.703 2°55.727 -999 0.10766 0.60994 -1.070216
2008-11-07 07:51:03 51°13.708 2°55.727 -999 0.11013 0.624531 -1.035392
2008-11-07 07:51:08 51°13.713 2°55.727 -999 0.11013 0.624531 -1.035392
2008-11-07 07:51:13 51°13.719 2°55.726 -999 0.08399 0.471132 -1.070216
2008-11-07 07:51:18 51°13.724 2°55.724 -999 0.082034 0.459727 -1.070216
2008-11-07 07:51:23 51°13.729 2°55.721 -999 0.076477 0.427471 -1.035392
2008-11-07 07:51:28 51°13.734 2°55.717 -999 0.081314 0.455509 -1.035392
2008-11-07 07:51:33 51°13.74 2°55.713 -999 0.073698 0.411389 -1.035392
2008-11-07 07:51:38 51°13.747 2°55.708 -999 0.073698 0.411389 -1.035392
2008-11-07 07:51:43 51°13.754 2°55.703 -999 0.073698 0.411382 -1.070216
2008-11-07 07:51:48 51°13.761 2°55.696 -999 0.072052 0.40187 -1.035392
2008-11-07 07:51:53 51°13.769 2°55.69 -999 0.068861 0.383489 -1.070216
2008-11-07 07:51:58 51°13.776 2°55.683 -999 0.070611 0.393556 -1.070216
2008-11-07 07:52:03 51°13.785 2°55.676 -999 0.070611 0.393556 -1.070216
2008-11-07 07:52:08 51°13.793 2°55.668 -999 0.065465 0.363967 -1.070216
2008-11-07 07:52:13 51°13.802 2°55.66 -999 0.067215 0.374027 -1.035392
2008-11-07 07:52:18 51°13.811 2°55.652 -999 0.06423 0.356903 -1.035392
2008-11-07 07:52:23 51°13.821 2°55.644 -999 0.065465 0.364006 -1.035392
2008-11-07 07:52:27 51°13.828 2°55.637 -999 0.065157 0.362248 -1.035392
2008-11-07 07:52:33 51°13.84 2°55.628 -999 0.064127 0.356365 -1.035392
2008-11-07 07:52:38 51°13.851 2°55.62 -999 0.064127 0.356365 -1.035392
2008-11-07 07:52:43 51°13.861 2°55.612 -999 0.065877 0.366415 -1.070216
2008-11-07 07:52:47 51°13.869 2°55.606 -999 0.063819 0.354621 -1.070216
2008-11-07 07:52:53 51°13.882 2°55.596 -999 0.065465 0.364079 -1.070216
2008-11-07 07:52:58 51°13.892 2°55.588 -999 0.065465 0.364085 -1.070216
2008-11-07 07:53:03 51°13.903 2°55.581 -999 0.061863 0.343447 -1.035392
2008-11-07 07:53:08 51°13.913 2°55.573 -999 0.061863 0.343447 -1.035392
2008-11-07 07:53:13 51°13.923 2°55.565 -999 0.062995 0.349929 -1.035392
2008-11-07 07:53:18 51°13.933 2°55.559 -999 0.062584 0.347577 -1.035392
2008-11-07 07:53:23 51°13.942 2°55.552 -999 0.06423 0.357019 -1.035392
2008-11-07 07:53:28 51°13.951 2°55.546 -999 0.063922 0.355262 -1.035392
2008-11-07 07:53:33 51°13.96 2°55.54 -999 0.064642 0.359406 -1.070216
2008-11-07 07:53:38 51°13.968 2°55.534 -999 0.064642 0.359406 -1.070216
2008-11-07 07:53:43 51°13.976 2°55.527 -999 0.064025 0.355878 -1.035392
2008-11-07 07:53:48 51°13.984 2°55.522 -999 0.065362 0.363567 -1.035392
2008-11-07 07:53:53 51°13.991 2°55.516 -999 0.065671 0.365353 -1.070216
2008-11-07 07:53:58 51°13.999 2°55.511 -999 0.064642 0.359458 -1.035392
2008-11-07 07:54:03 51°14.006 2°55.505 -999 0.064642 0.359458 -1.035392
2008-11-07 07:54:08 51°14.013 2°55.5 -999 0.06526 0.363009 -1.035392
2008-11-07 07:54:13 51°14.02 2°55.495 -999 0.064539 0.358881 -1.035392
2008-11-07 07:54:18 51°14.027 2°55.49 -999 0.064848 0.360659 -1.070216
2008-11-07 07:54:23 51°14.033 2°55.484 -999 0.064745 0.360075 -1.070216
2008-11-07 07:54:28 51°14.04 2°55.479 -999 0.064745 0.360082 -1.070216
2008-11-07 07:54:33 51°14.046 2°55.474 -999 0.064951 0.361269 -1.070216
2008-11-07 07:54:38 51°14.052 2°55.469 -999 0.064951 0.361269 -1.070216
2008-11-07 07:54:43 51°14.059 2°55.463 -999 0.065671 0.365412 -1.035392
2008-11-07 07:54:47 51°14.064 2°55.459 -999 0.064951 0.361283 -1.035392
2008-11-07 07:54:53 51°14.071 2°55.454 -999 0.064848 0.360698 -1.035392
2008-11-07 07:54:58 51°14.077 2°55.449 -999 0.065157 0.362477 -1.035392
2008-11-07 07:55:03 51°14.083 2°55.444 -999 0.065877 0.366621 -1.035392
2008-11-07 07:55:07 51°14.088 2°55.44 -999 0.065877 0.366621 -1.035392
2008-11-07 07:55:13 51°14.095 2°55.434 -999 0.067524 0.376101 -1.035392
2008-11-07 07:55:18 51°14.102 2°55.429 -999 0.067318 0.37493 -1.070216
2008-11-07 07:55:23 51°14.108 2°55.423 -999 0.067318 0.374937 -1.070216
2008-11-07 07:55:28 51°14.115 2°55.418 -999 0.066906 0.372576 -1.035392
2008-11-07 07:55:33 51°14.121 2°55.412 -999 0.066906 0.372576 -1.035392
2008-11-07 07:55:38 51°14.128 2°55.406 -999 0.067832 0.377912 -1.035392
2008-11-07 07:55:43 51°14.136 2°55.399 -999 0.068656 0.382665 -1.035392
2008-11-07 07:55:48 51°14.143 2°55.392 -999 0.068141 0.379709 -1.035392
2008-11-07 07:55:53 51°14.152 2°55.384 -999 0.067112 0.373794 -1.035392
2008-11-07 07:55:58 51°14.16 2°55.374 -999 0.071949 0.40167 -1.035392
2008-11-07 07:56:03 51°14.17 2°55.365 -999 0.068656 0.382693 -1.035392
2008-11-07 07:56:08 51°14.179 2°55.354 -999 0.068656 0.382693 -1.035392
2008-11-07 07:56:13 51°14.189 2°55.343 -999 0.067524 0.376183 -1.035392
2008-11-07 07:56:18 51°14.199 2°55.331 -999 0.066289 0.369087 -1.035392
2008-11-07 07:56:23 51°14.208 2°55.319 -999 0.066289 0.36908 -1.070216
2008-11-07 07:56:27 51°14.217 2°55.309 -999 0.067524 0.376196 -1.070216
2008-11-07 07:56:33 51°14.229 2°55.292 -999 0.069067 0.385099 -1.035392
2008-11-07 07:56:38 51°14.239 2°55.277 -999 0.069067 0.385099 -1.035392
2008-11-07 07:56:43 51°14.249 2°55.262 -999 0.064848 0.360829 -1.035392
2008-11-07 07:56:48 51°14.26 2°55.246 -999 0.066392 0.369699 -1.035392
2008-11-07 07:56:53 51°14.27 2°55.229 -999 0.070096 0.391052 -1.070216
2008-11-07 07:56:58 51°14.28 2°55.212 -999 0.063098 0.350816 -1.035392
2008-11-07 07:57:03 51°14.29 2°55.193 -999 0.059702 0.331366 -1.035392
2008-11-07 07:57:07 51°14.298 2°55.178 -999 0.059702 0.331366 -1.035392
2008-11-07 07:57:13 51°14.31 2°55.155 -999 0.071125 0.397011 -1.070216
2008-11-07 07:57:18 51°14.32 2°55.135 -999 0.066803 0.37212 -1.035392
2008-11-07 07:57:23 51°14.33 2°55.115 -999 0.062995 0.350239 -1.035392
2008-11-07 07:57:28 51°14.341 2°55.095 -999 0.06423 0.357323 -1.070216
2008-11-07 07:57:33 51°14.351 2°55.074 -999 0.06423 0.357323 -1.070216
2008-11-07 07:57:38 51°14.361 2°55.052 -999 0.058159 0.322554 -1.035392
2008-11-07 07:57:43 51°14.372 2°55.031 -999 0.063407 0.352599 -1.035392
2008-11-07 07:57:48 51°14.382 2°55.009 -999 0.058467 0.324334 -1.035392
2008-11-07 07:57:53 51°14.392 2°54.987 -999 0.058776 0.326091 -1.070216
2008-11-07 07:57:58 51°14.401 2°54.965 -999 0.060114 0.33375 -1.035392
2008-11-07 07:58:03 51°14.411 2°54.942 -999 0.061452 0.341419 -1.070216
2008-11-07 07:58:08 51°14.42 2°54.92 -999 0.061452 0.341419 -1.070216
2008-11-07 07:58:13 51°14.429 2°54.897 -999 0.055895 0.309676 -1.035392
2008-11-07 07:58:18 51°14.438 2°54.875 -999 0.057438 0.318477 -1.035392
2008-11-07 07:58:23 51°14.447 2°54.852 -999 0.058776 0.326133 -1.070216
2008-11-07 07:58:28 51°14.455 2°54.829 -999 0.063716 0.354435 -1.035392
2008-11-07 07:58:33 51°14.464 2°54.806 -999 0.053425 0.295659 -1.035392
2008-11-07 07:58:38 51°14.471 2°54.783 -999 0.053425 0.295659 -1.035392
2008-11-07 07:58:43 51°14.478 2°54.759 -999 0.055586 0.307945 -1.070216
2008-11-07 07:58:48 51°14.486 2°54.736 -999 0.055071 0.305015 -1.070216
2008-11-07 07:58:53 51°14.494 2°54.713 -999 0.054968 0.304435 -1.070216
2008-11-07 07:58:58 51°14.502 2°54.69 -999 0.056409 0.312659 -1.035392
2008-11-07 07:59:03 51°14.51 2°54.667 -999 0.055998 0.310324 -1.035392
2008-11-07 07:59:07 51°14.517 2°54.648 -999 0.055998 0.310324 -1.035392
2008-11-07 07:59:13 51°14.527 2°54.62 -999 0.058673 0.325609 -1.035392
2008-11-07 07:59:18 51°14.535 2°54.597 -999 0.058159 0.322687 -1.035392
2008-11-07 07:59:23 51°14.544 2°54.574 -999 0.055483 0.307431 -1.035392
2008-11-07 07:59:27 51°14.55 2°54.556 -999 0.054248 0.3004 -1.035392
2008-11-07 07:59:33 51°14.56 2°54.528 -999 0.054248 0.3004 -1.035392
2008-11-07 07:59:38 51°14.568 2°54.505 -999 0.05538 0.30685 -1.035392
2008-11-07 07:59:43 51°14.577 2°54.482 -999 0.056203 0.311542 -1.035392
2008-11-07 07:59:48 51°14.585 2°54.459 -999 0.053939 0.298649 -1.070216
2008-11-07 07:59:53 51°14.593 2°54.436 -999 0.059291 0.329174 -1.035392
2008-11-07 07:59:58 51°14.601 2°54.413 -999 0.06032 0.335085 -1.070216
2008-11-07 08:00:03 51°14.61 2°54.39 -999 0.059805 0.33214 -1.035392
2008-11-07 08:00:08 51°14.618 2°54.367 -999 0.059805 0.33214 -1.035392
2008-11-07 08:00:13 51°14.626 2°54.344 -999 0.055895 0.309816 -1.070216
2008-11-07 08:00:18 51°14.634 2°54.321 -999 0.05713 0.31687 -1.035392
2008-11-07 08:00:23 51°14.643 2°54.298 -999 0.05857 0.325109 -1.035392
2008-11-07 08:00:28 51°14.651 2°54.275 -999 0.055483 0.307486 -1.035392
2008-11-07 08:00:33 51°14.659 2°54.252 -999 0.056615 0.31394 -1.070216
2008-11-07 08:00:38 51°14.667 2°54.229 -999 0.056615 0.31394 -1.070216
2008-11-07 08:00:43 51°14.676 2°54.206 -999 0.05713 0.316876 -1.035392
2008-11-07 08:00:48 51°14.684 2°54.182 -999 0.057644 0.319819 -1.070216
2008-11-07 08:00:53 51°14.692 2°54.159 -999 0.0561 0.311017 -1.035392
2008-11-07 08:00:58 51°14.701 2°54.137 -999 0.057438 0.318661 -1.035392
2008-11-07 08:01:03 51°14.709 2°54.114 -999 0.057438 0.318661 -1.035392
2008-11-07 08:01:08 51°14.717 2°54.091 -999 0.056512 0.313387 -1.035392
2008-11-07 08:01:13 51°14.726 2°54.068 -999 0.055277 0.306347 -1.035392
2008-11-07 08:01:18 51°14.734 2°54.045 -999 0.059291 0.329263 -1.035392
2008-11-07 08:01:23 51°14.742 2°54.021 -999 0.060217 0.334574 -1.035392
2008-11-07 08:01:27 51°14.749 2°54.003 -999 0.060731 0.33752 -1.035392
2008-11-07 08:01:33 51°14.758 2°53.975 -999 0.054248 0.300497 -1.035392
2008-11-07 08:01:38 51°14.766 2°53.952 -999 0.054248 0.300497 -1.035392
2008-11-07 08:01:43 51°14.774 2°53.929 -999 0.055277 0.306352 -1.070216
2008-11-07 08:01:48 51°14.782 2°53.905 -999 0.05466 0.302835 -1.035392
2008-11-07 08:01:53 51°14.79 2°53.882 -999 0.055792 0.309285 -1.035392
2008-11-07 08:01:58 51°14.798 2°53.858 -999 0.056821 0.315154 -1.035392
2008-11-07 08:02:03 51°14.806 2°53.835 -999 0.061349 0.341082 -1.070216
2008-11-07 08:02:08 51°14.814 2°53.811 -999 0.061349 0.341082 -1.070216
2008-11-07 08:02:13 51°14.822 2°53.788 -999 0.059497 0.33047 -1.070216
2008-11-07 08:02:18 51°14.83 2°53.765 -999 0.06279 0.349343 -1.035392
2008-11-07 08:02:23 51°14.838 2°53.741 -999 0.060731 0.337545 -1.070216
2008-11-07 08:02:28 51°14.846 2°53.717 -999 0.060114 0.334009 -1.070216
2008-11-07 08:02:33 51°14.854 2°53.694 -999 0.059702 0.331666 -1.035392
2008-11-07 08:02:38 51°14.862 2°53.67 -999 0.059702 0.331666 -1.035392
2008-11-07 08:02:43 51°14.871 2°53.646 -999 0.056924 0.315792 -1.035392
2008-11-07 08:02:48 51°14.878 2°53.622 -999 0.055277 0.306402 -1.035392
2008-11-07 08:02:53 51°14.886 2°53.599 -999 0.055689 0.308748 -1.035392
2008-11-07 08:02:58 51°14.894 2°53.575 -999 0.060834 0.338165 -1.035392
2008-11-07 08:03:03 51°14.902 2°53.551 -999 0.060834 0.338165 -1.035392
2008-11-07 08:03:08 51°14.91 2°53.528 -999 0.059599 0.331113 -1.070216
2008-11-07 08:03:13 51°14.918 2°53.504 -999 0.056615 0.314053 -1.070216
2008-11-07 08:03:18 51°14.926 2°53.48 -999 0.055483 0.307603 -1.070216
2008-11-07 08:03:23 51°14.934 2°53.456 -999 0.055998 0.310536 -1.035392
2008-11-07 08:03:28 51°14.943 2°53.433 -999 0.05713 0.317001 -1.035392
2008-11-07 08:03:33 51°14.951 2°53.409 -999 0.057335 0.318177 -1.070216
2008-11-07 08:03:38 51°14.959 2°53.385 -999 0.057335 0.318177 -1.070216
2008-11-07 08:03:43 51°14.967 2°53.361 -999 0.054454 0.30175 -1.035392
2008-11-07 08:03:47 51°14.973 2°53.343 -999 0.055174 0.30586 -1.035392
2008-11-07 08:03:53 51°14.983 2°53.314 -999 0.055689 0.308798 -1.035392
2008-11-07 08:03:58 51°14.991 2°53.29 -999 0.057027 0.316437 -1.035392
2008-11-07 08:04:03 51°14.999 2°53.267 -999 0.058262 0.323503 -1.070216
2008-11-07 08:04:08 51°15.007 2°53.243 -999 0.058262 0.323503 -1.070216
2008-11-07 08:04:13 51°15.016 2°53.219 -999 0.059497 0.330578 -1.035392
2008-11-07 08:04:18 51°15.024 2°53.196 -999 0.055586 0.308239 -1.035392
2008-11-07 08:04:23 51°15.032 2°53.172 -999 0.054763 0.303552 -1.035392
2008-11-07 08:04:27 51°15.039 2°53.154 -999 0.054557 0.30238 -1.035392
2008-11-07 08:04:33 51°15.049 2°53.126 -999 0.054557 0.30238 -1.035392
2008-11-07 08:04:38 51°15.057 2°53.102 -999 0.054763 0.303558 -1.035392
2008-11-07 08:04:43 51°15.065 2°53.078 -999 0.054145 0.300041 -1.070216
2008-11-07 08:04:48 51°15.073 2°53.055 -999 0.057541 0.319415 -1.035392
2008-11-07 08:04:53 51°15.082 2°53.032 -999 0.055483 0.307675 -1.035392
2008-11-07 08:04:58 51°15.09 2°53.008 -999 0.056821 0.315307 -1.035392
2008-11-07 08:05:03 51°15.098 2°52.985 -999 0.054557 0.302402 -1.070216
2008-11-07 08:05:08 51°15.106 2°52.961 -999 0.054557 0.302402 -1.070216
2008-11-07 08:05:13 51°15.114 2°52.938 -999 0.053939 0.29888 -1.035392
2008-11-07 08:05:18 51°15.123 2°52.914 -999 0.05466 0.302993 -1.070216
2008-11-07 08:05:23 51°15.131 2°52.891 -999 0.056409 0.312975 -1.070216
2008-11-07 08:05:28 51°15.139 2°52.868 -999 0.055689 0.308882 -1.035392
2008-11-07 08:05:33 51°15.147 2°52.844 -999 0.055689 0.308904 -1.035392
2008-11-07 08:05:38 51°15.155 2°52.821 -999 0.055689 0.308904 -1.035392
2008-11-07 08:05:43 51°15.163 2°52.798 -999 0.055277 0.306568 -1.070216
2008-11-07 08:05:48 51°15.171 2°52.774 -999 0.053322 0.29543 -1.070216
2008-11-07 08:05:53 51°15.179 2°52.751 -999 0.05538 0.307154 -1.035392
2008-11-07 08:05:58 51°15.187 2°52.727 -999 0.054763 0.303634 -1.070216
2008-11-07 08:06:03 51°15.195 2°52.704 -999 0.053734 0.297773 -1.070216
2008-11-07 08:06:08 51°15.203 2°52.68 -999 0.053734 0.297773 -1.070216
2008-11-07 08:06:13 51°15.211 2°52.657 -999 0.055689 0.308921 -1.035392
2008-11-07 08:06:18 51°15.219 2°52.633 -999 0.055174 0.305992 -1.070216
2008-11-07 08:06:23 51°15.226 2°52.61 -999 0.053528 0.296612 -1.035392
2008-11-07 08:06:27 51°15.232 2°52.59 -999 0.056924 0.315986 -1.035392
2008-11-07 08:06:33 51°15.241 2°52.562 -999 0.056924 0.315986 -1.035392
2008-11-07 08:06:38 51°15.249 2°52.538 -999 0.058673 0.325998 -1.035392
2008-11-07 08:06:43 51°15.256 2°52.514 -999 0.058056 0.32249 -1.070216
2008-11-07 08:06:48 51°15.263 2°52.49 -999 0.057438 0.318966 -1.035392
2008-11-07 08:06:53 51°15.27 2°52.466 -999 0.052293 0.289628 -1.035392
2008-11-07 08:06:58 51°15.277 2°52.442 -999 0.054042 0.299584 -1.035392
2008-11-07 08:07:03 51°15.284 2°52.418 -999 0.053734 0.297826 -1.035392
2008-11-07 08:07:08 51°15.291 2°52.394 -999 0.053734 0.297826 -1.035392
2008-11-07 08:07:13 51°15.298 2°52.37 -999 0.056203 0.311913 -1.035392
2008-11-07 08:07:18 51°15.304 2°52.345 -999 0.052807 0.292565 -1.035392
2008-11-07 08:07:23 51°15.31 2°52.321 -999 0.055895 0.310162 -1.070216
2008-11-07 08:07:28 51°15.316 2°52.296 -999 0.055998 0.31076 -1.035392
2008-11-07 08:07:33 51°15.321 2°52.271 -999 0.054145 0.300198 -1.035392
2008-11-07 08:07:38 51°15.327 2°52.246 -999 0.054145 0.300198 -1.035392
2008-11-07 08:07:43 51°15.332 2°52.221 -999 0.054557 0.302554 -1.035392
2008-11-07 08:07:48 51°15.337 2°52.196 -999 0.053734 0.297874 -1.035392
2008-11-07 08:07:53 51°15.343 2°52.171 -999 0.054351 0.301397 -1.070216
2008-11-07 08:07:58 51°15.348 2°52.146 -999 0.054454 0.301989 -1.070216
2008-11-07 08:08:03 51°15.353 2°52.122 -999 0.053528 0.296713 -1.035392
2008-11-07 08:08:07 51°15.357 2°52.101 -999 0.053528 0.296713 -1.035392
2008-11-07 08:08:13 51°15.364 2°52.071 -999 0.054763 0.303755 -1.070216
2008-11-07 08:08:18 51°15.369 2°52.047 -999 0.059188 0.329055 -1.070216
2008-11-07 08:08:23 51°15.374 2°52.021 -999 0.057438 0.319058 -1.035392
2008-11-07 08:08:27 51°15.378 2°52.001 -999 0.053939 0.29909 -1.035392
2008-11-07 08:08:33 51°15.384 2°51.971 -999 0.052293 0.289717 -1.070216
2008-11-07 08:08:38 51°15.388 2°51.945 -999 0.052293 0.289717 -1.070216
2008-11-07 08:08:43 51°15.393 2°51.92 -999 0.052293 0.289722 -1.035392
2008-11-07 08:08:47 51°15.396 2°51.9 -999 0.053116 0.294407 -1.070216
2008-11-07 08:08:53 51°15.402 2°51.87 -999 0.055586 0.3085 -1.070216
2008-11-07 08:08:58 51°15.406 2°51.844 -999 0.054866 0.304402 -1.035392
2008-11-07 08:09:03 51°15.411 2°51.819 -999 0.054968 0.304994 -1.035392
2008-11-07 08:09:08 51°15.415 2°51.793 -999 0.054968 0.304994 -1.035392
2008-11-07 08:09:13 51°15.419 2°51.768 -999 0.056615 0.314405 -1.070216
2008-11-07 08:09:18 51°15.424 2°51.743 -999 0.052704 0.292122 -1.035392
2008-11-07 08:09:23 51°15.429 2°51.717 -999 0.054557 0.302674 -1.035392
2008-11-07 08:09:28 51°15.433 2°51.692 -999 0.055895 0.310307 -1.035392
2008-11-07 08:09:33 51°15.438 2°51.667 -999 0.055071 0.305614 -1.035392
2008-11-07 08:09:38 51°15.442 2°51.642 -999 0.055071 0.305614 -1.035392
2008-11-07 08:09:43 51°15.446 2°51.616 -999 0.054042 0.299752 -1.035392
2008-11-07 08:09:48 51°15.451 2°51.591 -999 0.052087 0.288614 -1.035392
2008-11-07 08:09:53 51°15.456 2°51.565 -999 0.05147 0.285108 -1.070216
2008-11-07 08:09:58 51°15.46 2°51.54 -999 0.055483 0.307969 -1.035392
2008-11-07 08:10:03 51°15.464 2°51.515 -999 0.055483 0.307969 -1.035392
2008-11-07 08:10:08 51°15.469 2°51.489 -999 0.055998 0.310929 -1.070216
2008-11-07 08:10:13 51°15.474 2°51.464 -999 0.056718 0.315044 -1.035392
2008-11-07 08:10:18 51°15.478 2°51.439 -999 0.054557 0.302712 -1.070216
2008-11-07 08:10:23 51°15.483 2°51.414 -999 0.056306 0.312709 -1.035392
2008-11-07 08:10:28 51°15.487 2°51.388 -999 0.056409 0.313314 -1.070216
2008-11-07 08:10:33 51°15.492 2°51.363 -999 0.054248 0.300985 -1.035392
2008-11-07 08:10:38 51°15.496 2°51.338 -999 0.054248 0.300985 -1.035392
2008-11-07 08:10:43 51°15.501 2°51.312 -999 0.054351 0.301577 -1.035392
2008-11-07 08:10:47 51°15.505 2°51.292 -999 0.053219 0.295125 -1.035392
2008-11-07 08:10:53 51°15.51 2°51.262 -999 0.054557 0.302761 -1.035392
2008-11-07 08:10:58 51°15.515 2°51.237 -999 0.057747 0.320997 -1.035392
2008-11-07 08:11:03 51°15.519 2°51.211 -999 0.05291 0.293399 -1.035392
2008-11-07 08:11:08 51°15.523 2°51.186 -999 0.05291 0.293399 -1.035392
2008-11-07 08:11:13 51°15.528 2°51.161 -999 0.054145 0.300441 -1.035392
2008-11-07 08:11:18 51°15.532 2°51.135 -999 0.051572 0.28579 -1.035392
2008-11-07 08:11:23 51°15.535 2°51.11 -999 0.053322 0.295754 -1.035392
2008-11-07 08:11:28 51°15.539 2°51.084 -999 0.055895 0.310442 -1.035392
2008-11-07 08:11:33 51°15.543 2°51.059 -999 0.053013 0.294006 -1.035392
2008-11-07 08:11:38 51°15.547 2°51.033 -999 0.053013 0.294006 -1.035392
2008-11-07 08:11:43 51°15.55 2°51.008 -999 0.055174 0.30634 -1.070216
2008-11-07 08:11:48 51°15.554 2°50.983 -999 0.054763 0.303996 -1.070216
2008-11-07 08:11:53 51°15.558 2°50.957 -999 0.055689 0.309294 -1.070216
2008-11-07 08:11:58 51°15.562 2°50.932 -999 0.051161 0.283491 -1.070216
2008-11-07 08:12:03 51°15.566 2°50.906 -999 0.053425 0.296383 -1.035392
2008-11-07 08:12:08 51°15.569 2°50.881 -999 0.053425 0.296383 -1.035392
2008-11-07 08:12:13 51°15.573 2°50.855 -999 0.056821 0.315769 -1.035392
2008-11-07 08:12:18 51°15.577 2°50.83 -999 0.056306 0.312844 -1.070216
2008-11-07 08:12:23 51°15.581 2°50.805 -999 0.052807 0.292881 -1.035392
2008-11-07 08:12:27 51°15.584 2°50.784 -999 0.053631 0.297572 -1.035392
2008-11-07 08:12:33 51°15.589 2°50.754 -999 0.053734 0.298164 -1.035392
2008-11-07 08:12:38 51°15.593 2°50.728 -999 0.053734 0.298164 -1.035392
2008-11-07 08:12:43 51°15.597 2°50.703 -999 0.057027 0.316974 -1.035392
2008-11-07 08:12:48 51°15.601 2°50.678 -999 0.054968 0.30522 -1.035392
2008-11-07 08:12:53 51°15.605 2°50.652 -999 0.055277 0.306988 -1.035392
2008-11-07 08:12:58 51°15.61 2°50.627 -999 0.052293 0.289977 -1.035392
2008-11-07 08:13:03 51°15.615 2°50.602 -999 0.052293 0.289983 -1.035392
2008-11-07 08:13:07 51°15.618 2°50.582 -999 0.052293 0.289983 -1.035392
2008-11-07 08:13:13 51°15.624 2°50.552 -999 0.05147 0.285303 -1.035392
2008-11-07 08:13:18 51°15.629 2°50.527 -999 0.051058 0.282967 -1.070216
2008-11-07 08:13:23 51°15.633 2°50.501 -999 0.052807 0.292934 -1.035392
2008-11-07 08:13:28 51°15.639 2°50.476 -999 0.052807 0.292934 -1.070216
2008-11-07 08:13:33 51°15.643 2°50.451 -999 0.052807 0.292934 -1.070216
2008-11-07 08:13:38 51°15.648 2°50.426 -999 0.054351 0.301745 -1.035392
2008-11-07 08:13:43 51°15.653 2°50.4 -999 0.052499 0.291197 -1.035392
2008-11-07 08:13:48 51°15.657 2°50.375 -999 0.053939 0.299419 -1.070216
2008-11-07 08:13:53 51°15.662 2°50.35 -999 0.054042 0.300011 -1.035392
2008-11-07 08:13:58 51°15.667 2°50.325 -999 0.052087 0.288868 -1.070216
2008-11-07 08:14:03 51°15.672 2°50.299 -999 0.050338 0.278917 -1.035392
2008-11-07 08:14:08 51°15.677 2°50.274 -999 0.050338 0.278917 -1.035392
2008-11-07 08:14:13 51°15.682 2°50.249 -999 0.052396 0.290626 -1.035392
2008-11-07 08:14:18 51°15.688 2°50.224 -999 0.054042 0.300027 -1.070216
2008-11-07 08:14:23 51°15.693 2°50.199 -999 0.05538 0.307681 -1.035392
2008-11-07 08:14:28 51°15.699 2°50.174 -999 0.054351 0.301816 -1.035392
2008-11-07 08:14:33 51°15.704 2°50.149 -999 0.052499 0.29127 -1.070216
2008-11-07 08:14:38 51°15.709 2°50.124 -999 0.052499 0.29127 -1.070216
2008-11-07 08:14:43 51°15.715 2°50.1 -999 0.054042 0.300065 -1.070216
2008-11-07 08:14:47 51°15.719 2°50.08 -999 0.05466 0.303606 -1.070216
2008-11-07 08:14:53 51°15.725 2°50.05 -999 0.055895 0.310666 -1.070216
2008-11-07 08:14:58 51°15.731 2°50.025 -999 0.051367 0.28484 -1.070216
2008-11-07 08:15:03 51°15.736 2°50 -999 0.053939 0.2995 -1.035392
2008-11-07 08:15:07 51°15.741 2°49.98 -999 0.053939 0.2995 -1.035392
2008-11-07 08:15:13 51°15.747 2°49.95 -999 0.05219 0.289532 -1.035392
2008-11-07 08:15:18 51°15.752 2°49.925 -999 0.053939 0.299505 -1.035392
2008-11-07 08:15:23 51°15.757 2°49.9 -999 0.054351 0.301871 -1.035392
2008-11-07 08:15:28 51°15.762 2°49.875 -999 0.051161 0.2837 -1.035392
2008-11-07 08:15:33 51°15.767 2°49.85 -999 0.051161 0.2837 -1.035392
2008-11-07 08:15:38 51°15.772 2°49.825 -999 0.052499 0.291317 -1.070216
2008-11-07 08:15:43 51°15.776 2°49.8 -999 0.054042 0.300125 -1.070216
2008-11-07 08:15:48 51°15.781 2°49.775 -999 0.052293 0.290155 -1.070216
2008-11-07 08:15:53 51°15.786 2°49.75 -999 0.054557 0.303078 -1.035392
2008-11-07 08:15:58 51°15.792 2°49.725 -999 0.053322 0.296037 -1.035392
2008-11-07 08:16:03 51°15.797 2°49.7 -999 0.050749 0.281388 -1.035392
2008-11-07 08:16:08 51°15.802 2°49.675 -999 0.050749 0.281388 -1.035392
2008-11-07 08:16:13 51°15.807 2°49.65 -999 0.055277 0.307227 -1.070216
2008-11-07 08:16:18 51°15.811 2°49.625 -999 0.050852 0.281999 -1.035392
2008-11-07 08:16:23 51°15.815 2°49.6 -999 0.053013 0.294313 -1.070216
2008-11-07 08:16:28 51°15.819 2°49.575 -999 0.05291 0.293727 -1.070216
2008-11-07 08:16:33 51°15.823 2°49.549 -999 0.051675 0.28669 -1.035392
2008-11-07 08:16:38 51°15.827 2°49.524 -999 0.051675 0.28669 -1.035392
2008-11-07 08:16:43 51°15.831 2°49.498 -999 0.052396 0.290799 -1.035392
2008-11-07 08:16:48 51°15.834 2°49.473 -999 0.050852 0.282014 -1.035392
2008-11-07 08:16:53 51°15.838 2°49.447 -999 0.05219 0.289637 -1.070216
2008-11-07 08:16:58 51°15.842 2°49.422 -999 0.05147 0.285534 -1.070216
2008-11-07 08:17:03 51°15.846 2°49.396 -999 0.052396 0.29082 -1.035392
2008-11-07 08:17:07 51°15.849 2°49.376 -999 0.052396 0.29082 -1.035392
2008-11-07 08:17:13 51°15.854 2°49.345 -999 0.051675 0.286716 -1.035392
2008-11-07 08:17:18 51°15.858 2°49.32 -999 0.052396 0.29083 -1.035392
2008-11-07 08:17:23 51°15.861 2°49.294 -999 0.049 0.271515 -1.035392
2008-11-07 08:17:27 51°15.865 2°49.274 -999 0.053425 0.296725 -1.070216
2008-11-07 08:17:33 51°15.87 2°49.243 -999 0.052602 0.29204 -1.035392
2008-11-07 08:17:38 51°15.874 2°49.217 -999 0.052602 0.29204 -1.035392
2008-11-07 08:17:43 51°15.879 2°49.192 -999 0.050852 0.282075 -1.035392
2008-11-07 08:17:48 51°15.883 2°49.166 -999 0.052602 0.292046 -1.070216
2008-11-07 08:17:53 51°15.888 2°49.141 -999 0.053116 0.294996 -1.035392
2008-11-07 08:17:58 51°15.893 2°49.116 -999 0.052807 0.293246 -1.070216
2008-11-07 08:18:03 51°15.898 2°49.09 -999 0.051778 0.28739 -1.035392
2008-11-07 08:18:08 51°15.903 2°49.065 -999 0.051778 0.28739 -1.035392
2008-11-07 08:18:13 51°15.908 2°49.04 -999 0.054248 0.301479 -1.070216
2008-11-07 08:18:18 51°15.913 2°49.014 -999 0.054454 0.30266 -1.035392
2008-11-07 08:18:23 51°15.918 2°48.989 -999 0.055071 0.3062 -1.070216
2008-11-07 08:18:28 51°15.923 2°48.964 -999 0.05291 0.29387 -1.035392
2008-11-07 08:18:33 51°15.928 2°48.939 -999 0.051881 0.288008 -1.035392
2008-11-07 08:18:38 51°15.933 2°48.914 -999 0.051881 0.288008 -1.035392
2008-11-07 08:18:43 51°15.937 2°48.888 -999 0.053837 0.299172 -1.035392
2008-11-07 08:18:48 51°15.942 2°48.863 -999 0.054454 0.302699 -1.070216
2008-11-07 08:18:53 51°15.946 2°48.837 -999 0.052293 0.290364 -1.035392
2008-11-07 08:18:58 51°15.95 2°48.812 -999 0.053837 0.299177 -1.035392
2008-11-07 08:19:03 51°15.955 2°48.787 -999 0.051161 0.283925 -1.035392
2008-11-07 08:19:08 51°15.959 2°48.761 -999 0.051161 0.283925 -1.035392
2008-11-07 08:19:13 51°15.963 2°48.736 -999 0.049617 0.275141 -1.070216
2008-11-07 08:19:18 51°15.968 2°48.71 -999 0.053219 0.295669 -1.070216
2008-11-07 08:19:23 51°15.972 2°48.685 -999 0.051264 0.284531 -1.070216
2008-11-07 08:19:28 51°15.976 2°48.66 -999 0.051675 0.286876 -1.035392
2008-11-07 08:19:33 51°15.981 2°48.634 -999 0.051367 0.285128 -1.035392
2008-11-07 08:19:38 51°15.985 2°48.609 -999 0.051367 0.285128 -1.035392
2008-11-07 08:19:43 51°15.989 2°48.583 -999 0.047456 0.262897 -1.070216
2008-11-07 08:19:48 51°15.993 2°48.558 -999 0.052602 0.292193 -1.070216
2008-11-07 08:19:53 51°15.997 2°48.532 -999 0.051881 0.288091 -1.070216
2008-11-07 08:19:58 51°16.002 2°48.507 -999 0.05219 0.289851 -1.070216
2008-11-07 08:20:03 51°16.006 2°48.481 -999 0.048897 0.27111 -1.070216
2008-11-07 08:20:08 51°16.01 2°48.456 -999 0.048897 0.27111 -1.070216
2008-11-07 08:20:13 51°16.014 2°48.43 -999 0.053322 0.296331 -1.035392
2008-11-07 08:20:18 51°16.018 2°48.405 -999 0.05147 0.285771 -1.070216
2008-11-07 08:20:23 51°16.022 2°48.38 -999 0.049617 0.27523 -1.070216
2008-11-07 08:20:28 51°16.026 2°48.354 -999 0.053013 0.2946 -1.070216
2008-11-07 08:20:33 51°16.031 2°48.329 -999 0.050235 0.278763 -1.070216
2008-11-07 08:20:38 51°16.035 2°48.303 -999 0.050235 0.278763 -1.070216
2008-11-07 08:20:43 51°16.039 2°48.278 -999 0.05044 0.27994 -1.070216
2008-11-07 08:20:48 51°16.043 2°48.252 -999 0.051058 0.283461 -1.070216
2008-11-07 08:20:53 51°16.047 2°48.227 -999 0.051161 0.284068 -1.035392
2008-11-07 08:20:58 51°16.051 2°48.202 -999 0.053013 0.294627 -1.070216
2008-11-07 08:21:03 51°16.056 2°48.176 -999 0.050749 0.281723 -1.070216
2008-11-07 08:21:08 51°16.059 2°48.151 -999 0.050749 0.281723 -1.070216
2008-11-07 08:21:13 51°16.063 2°48.125 -999 0.049617 0.27528 -1.070216
2008-11-07 08:21:18 51°16.067 2°48.1 -999 0.052087 0.289363 -1.035392
2008-11-07 08:21:23 51°16.071 2°48.074 -999 0.050749 0.281743 -1.035392
2008-11-07 08:21:28 51°16.074 2°48.049 -999 0.051161 0.284093 -1.035392
2008-11-07 08:21:33 51°16.077 2°48.023 -999 0.04972 0.2759 -1.035392
2008-11-07 08:21:38 51°16.08 2°47.997 -999 0.04972 0.2759 -1.035392
2008-11-07 08:21:43 51°16.083 2°47.972 -999 0.049926 0.277076 -1.070216
2008-11-07 08:21:47 51°16.085 2°47.951 -999 0.05044 0.280015 -1.035392
2008-11-07 08:21:53 51°16.089 2°47.921 -999 0.049823 0.276495 -1.070216
2008-11-07 08:21:58 51°16.091 2°47.895 -999 0.049926 0.277081 -1.035392
2008-11-07 08:22:03 51°16.094 2°47.869 -999 0.051778 0.287644 -1.070216
2008-11-07 08:22:08 51°16.097 2°47.843 -999 0.051778 0.287644 -1.070216
2008-11-07 08:22:13 51°16.099 2°47.818 -999 0.049617 0.275349 -1.070216
2008-11-07 08:22:18 51°16.102 2°47.792 -999 0.050543 0.280627 -1.070216
2008-11-07 08:22:23 51°16.105 2°47.766 -999 0.048279 0.267757 -1.035392
2008-11-07 08:22:27 51°16.107 2°47.746 -999 0.048485 0.268936 -1.070216
2008-11-07 08:22:33 51°16.11 2°47.715 -999 0.048485 0.268936 -1.070216
2008-11-07 08:22:38 51°16.113 2°47.689 -999 0.051058 0.283584 -1.070216
2008-11-07 08:22:43 51°16.116 2°47.664 -999 0.051675 0.287125 -1.035392
2008-11-07 08:22:48 51°16.119 2°47.638 -999 0.051161 0.284196 -1.035392
2008-11-07 08:22:53 51°16.122 2°47.613 -999 0.049926 0.277166 -1.035392
2008-11-07 08:22:58 51°16.125 2°47.587 -999 0.049617 0.275408 -1.035392
2008-11-07 08:23:03 51°16.129 2°47.561 -999 0.050749 0.281865 -1.070216
2008-11-07 08:23:08 51°16.133 2°47.536 -999 0.050749 0.281865 -1.070216
2008-11-07 08:23:13 51°16.136 2°47.51 -999 0.048691 0.270154 -1.070216
2008-11-07 08:23:18 51°16.139 2°47.485 -999 0.049926 0.277191 -1.035392
2008-11-07 08:23:23 51°16.143 2°47.459 -999 0.051778 0.287774 -1.070216
2008-11-07 08:23:28 51°16.146 2°47.434 -999 0.051367 0.285441 -1.070216
2008-11-07 08:23:33 51°16.151 2°47.408 -999 0.049823 0.27664 -1.070216
2008-11-07 08:23:38 51°16.154 2°47.383 -999 0.049823 0.27664 -1.070216
2008-11-07 08:23:43 51°16.158 2°47.357 -999 0.051367 0.285447 -1.035392
2008-11-07 08:23:47 51°16.16 2°47.337 -999 0.050441 0.280172 -1.070216
2008-11-07 08:23:53 51°16.164 2°47.306 -999 0.051778 0.287795 -1.070216
2008-11-07 08:23:58 51°16.167 2°47.281 -999 0.050852 0.282528 -1.035392
2008-11-07 08:24:03 51°16.17 2°47.255 -999 0.048485 0.269047 -1.035392
2008-11-07 08:24:08 51°16.173 2°47.23 -999 0.048485 0.269047 -1.035392
2008-11-07 08:24:13 51°16.176 2°47.204 -999 0.047662 0.264368 -1.035392
2008-11-07 08:24:18 51°16.179 2°47.179 -999 0.048382 0.268467 -1.070216
2008-11-07 08:24:23 51°16.182 2°47.153 -999 0.048691 0.270232 -1.070216
2008-11-07 08:24:27 51°16.184 2°47.133 -999 0.048794 0.270832 -1.070216
2008-11-07 08:24:33 51°16.187 2°47.102 -999 0.048794 0.270832 -1.070216
2008-11-07 08:24:38 51°16.19 2°47.076 -999 0.047045 0.26089 -1.070216
2008-11-07 08:24:43 51°16.193 2°47.051 -999 0.047353 0.262643 -1.035392
2008-11-07 08:24:48 51°16.196 2°47.025 -999 0.048177 0.26733 -1.035392
2008-11-07 08:24:53 51°16.199 2°47 -999 0.046736 0.259156 -1.035392
2008-11-07 08:24:58 51°16.202 2°46.974 -999 0.048279 0.267935 -1.070216
2008-11-07 08:25:03 51°16.205 2°46.949 -999 0.04972 0.276148 -1.070216
2008-11-07 08:25:08 51°16.209 2°46.923 -999 0.04972 0.276148 -1.070216
2008-11-07 08:25:13 51°16.212 2°46.898 -999 0.049206 0.273238 -1.070216
2008-11-07 08:25:18 51°16.214 2°46.872 -999 0.048074 0.266813 -1.035392
2008-11-07 08:25:23 51°16.218 2°46.847 -999 0.052293 0.290873 -1.070216
2008-11-07 08:25:28 51°16.221 2°46.821 -999 0.050852 0.282655 -1.035392
2008-11-07 08:25:33 51°16.224 2°46.796 -999 0.049823 0.276784 -1.035392
2008-11-07 08:25:38 51°16.228 2°46.771 -999 0.049823 0.276784 -1.035392
2008-11-07 08:25:43 51°16.231 2°46.745 -999 0.050441 0.280303 -1.070216
2008-11-07 08:25:48 51°16.234 2°46.72 -999 0.055174 0.307377 -1.035392
2008-11-07 08:25:53 51°16.238 2°46.695 -999 0.050338 0.279737 -1.035392
2008-11-07 08:25:58 51°16.241 2°46.669 -999 0.050646 0.281482 -1.035392
2008-11-07 08:26:03 51°16.244 2°46.644 -999 0.051058 0.283819 -1.070216
2008-11-07 08:26:08 51°16.248 2°46.618 -999 0.051058 0.283819 -1.070216
2008-11-07 08:26:13 51°16.251 2°46.593 -999 0.050235 0.279125 -1.070216
2008-11-07 08:26:18 51°16.255 2°46.568 -999 0.051675 0.287348 -1.070216
2008-11-07 08:26:23 51°16.259 2°46.542 -999 0.051984 0.289126 -1.035392
2008-11-07 08:26:27 51°16.263 2°46.522 -999 0.049103 0.272707 -1.070216
2008-11-07 08:26:33 51°16.267 2°46.491 -999 0.049103 0.272726 -1.035392
2008-11-07 08:26:38 51°16.271 2°46.466 -999 0.049103 0.272726 -1.035392
2008-11-07 08:26:43 51°16.276 2°46.441 -999 0.052705 0.293305 -1.070216
2008-11-07 08:26:47 51°16.279 2°46.421 -999 0.049309 0.273953 -1.070216
2008-11-07 08:26:53 51°16.284 2°46.391 -999 0.049206 0.273386 -1.035392
2008-11-07 08:26:58 51°16.287 2°46.365 -999 0.053219 0.296305 -1.035392
2008-11-07 08:27:03 51°16.292 2°46.34 -999 0.050235 0.279286 -1.035392
2008-11-07 08:27:08 51°16.296 2°46.315 -999 0.050235 0.279286 -1.035392
2008-11-07 08:27:13 51°16.3 2°46.289 -999 0.049411 0.274588 -1.035392
2008-11-07 08:27:18 51°16.305 2°46.264 -999 0.052705 0.293368 -1.070216
2008-11-07 08:27:23 51°16.309 2°46.239 -999 0.049823 0.276919 -1.035392
2008-11-07 08:27:28 51°16.314 2°46.214 -999 0.052087 0.289845 -1.070216
2008-11-07 08:27:33 51°16.319 2°46.188 -999 0.050852 0.282793 -1.035392
2008-11-07 08:27:38 51°16.325 2°46.164 -999 0.050852 0.282793 -1.035392
2008-11-07 08:27:43 51°16.33 2°46.138 -999 0.048794 0.271062 -1.070216
2008-11-07 08:27:48 51°16.336 2°46.113 -999 0.054248 0.302227 -1.070216
2008-11-07 08:27:53 51°16.342 2°46.088 -999 0.049411 0.274628 -1.070216
2008-11-07 08:27:58 51°16.347 2°46.063 -999 0.052602 0.292849 -1.035392
2008-11-07 08:28:03 51°16.353 2°46.038 -999 0.052602 0.292849 -1.035392
2008-11-07 08:28:08 51°16.359 2°46.013 -999 0.05219 0.290511 -1.035392
2008-11-07 08:28:13 51°16.365 2°45.988 -999 0.050441 0.280531 -1.035392
2008-11-07 08:28:18 51°16.372 2°45.964 -999 0.05147 0.286411 -1.035392
2008-11-07 08:28:23 51°16.379 2°45.94 -999 0.049617 0.275851 -1.070216
2008-11-07 08:28:27 51°16.384 2°45.92 -999 0.050029 0.278208 -1.070216
2008-11-07 08:28:33 51°16.393 2°45.891 -999 0.050132 0.2788 -1.035392
2008-11-07 08:28:38 51°16.401 2°45.867 -999 0.050132 0.2788 -1.035392
2008-11-07 08:28:43 51°16.408 2°45.843 -999 0.050029 0.278233 -1.070216
2008-11-07 08:28:48 51°16.416 2°45.819 -999 0.051367 0.285885 -1.035392
2008-11-07 08:28:53 51°16.423 2°45.795 -999 0.050338 0.280005 -1.070216
2008-11-07 08:28:58 51°16.431 2°45.771 -999 0.05538 0.308854 -1.070216
2008-11-07 08:29:03 51°16.439 2°45.747 -999 0.048588 0.270036 -1.070216
2008-11-07 08:29:08 51°16.447 2°45.723 -999 0.048588 0.270036 -1.070216
2008-11-07 08:29:13 51°16.456 2°45.7 -999 0.052602 0.292965 -1.070216
2008-11-07 08:29:18 51°16.465 2°45.677 -999 0.057027 0.318368 -1.070216
2008-11-07 08:29:23 51°16.474 2°45.654 -999 0.049309 0.274195 -1.070216
2008-11-07 08:29:28 51°16.483 2°45.631 -999 0.049206 0.273608 -1.035392
2008-11-07 08:29:33 51°16.493 2°45.609 -999 0.052602 0.293003 -1.035392
2008-11-07 08:29:38 51°16.503 2°45.587 -999 0.052602 0.293003 -1.035392
2008-11-07 08:29:43 51°16.513 2°45.564 -999 0.048177 0.26773 -1.070216
2008-11-07 08:29:48 51°16.524 2°45.543 -999 0.050029 0.278288 -1.070216
2008-11-07 08:29:53 51°16.535 2°45.522 -999 0.04725 0.262464 -1.070216
2008-11-07 08:29:58 51°16.546 2°45.501 -999 0.049926 0.277716 -1.070216
2008-11-07 08:30:03 51°16.558 2°45.48 -999 0.052807 0.294196 -1.035392
2008-11-07 08:30:08 51°16.569 2°45.46 -999 0.052807 0.294196 -1.035392
2008-11-07 08:30:13 51°16.581 2°45.439 -999 0.05466 0.304845 -1.070216
2008-11-07 08:30:18 51°16.592 2°45.419 -999 0.051778 0.288347 -1.035392
2008-11-07 08:30:23 51°16.605 2°45.4 -999 0.052293 0.291284 -1.035392
2008-11-07 08:30:28 51°16.617 2°45.38 -999 0.056924 0.317852 -1.070216
2008-11-07 08:30:33 51°16.63 2°45.362 -999 0.049 0.272504 -1.070216
2008-11-07 08:30:38 51°16.642 2°45.342 -999 0.049 0.272504 -1.070216
2008-11-07 08:30:43 51°16.656 2°45.325 -999 0.053837 0.30017 -1.070216
2008-11-07 08:30:48 51°16.669 2°45.306 -999 0.051264 0.285463 -1.070216
2008-11-07 08:30:53 51°16.682 2°45.288 -999 0.052087 0.290181 -1.070216
2008-11-07 08:30:58 51°16.695 2°45.269 -999 0.05219 0.29078 -1.035392
2008-11-07 08:31:03 51°16.709 2°45.252 -999 0.057644 0.322105 -1.070216
2008-11-07 08:31:07 51°16.72 2°45.237 -999 0.057644 0.322105 -1.070216
2008-11-07 08:31:13 51°16.736 2°45.216 -999 0.059497 0.3328 -1.070216
2008-11-07 08:31:18 51°16.748 2°45.197 -999 0.049206 0.273781 -1.035392
2008-11-07 08:31:23 51°16.761 2°45.179 -999 0.056615 0.316228 -1.035392
2008-11-07 08:31:28 51°16.774 2°45.159 -999 0.051675 0.287884 -1.035392
2008-11-07 08:31:33 51°16.787 2°45.141 -999 0.055689 0.310918 -1.070216
2008-11-07 08:31:38 51°16.799 2°45.121 -999 0.055689 0.310918 -1.070216
2008-11-07 08:31:43 51°16.812 2°45.102 -999 0.053219 0.296773 -1.070216
2008-11-07 08:31:48 51°16.825 2°45.083 -999 0.051881 0.289124 -1.035392
2008-11-07 08:31:53 51°16.838 2°45.065 -999 0.052293 0.291495 -1.070216
2008-11-07 08:31:58 51°16.851 2°45.046 -999 0.050441 0.280912 -1.035392
2008-11-07 08:32:03 51°16.864 2°45.028 -999 0.050749 0.282686 -1.035392
2008-11-07 08:32:08 51°16.876 2°45.009 -999 0.050749 0.282686 -1.035392
2008-11-07 08:32:13 51°16.889 2°44.991 -999 0.051881 0.289145 -1.070216
2008-11-07 08:32:18 51°16.902 2°44.972 -999 0.053013 0.295615 -1.070216
2008-11-07 08:32:23 51°16.915 2°44.953 -999 0.051264 0.285623 -1.035392
2008-11-07 08:32:28 51°16.928 2°44.935 -999 0.053219 0.296838 -1.070216
2008-11-07 08:32:33 51°16.942 2°44.917 -999 0.050235 0.279781 -1.070216
2008-11-07 08:32:38 51°16.955 2°44.899 -999 0.050235 0.279781 -1.070216
2008-11-07 08:32:43 51°16.969 2°44.882 -999 0.055689 0.31106 -1.035392
2008-11-07 08:32:48 51°16.983 2°44.865 -999 0.051778 0.28866 -1.070216
2008-11-07 08:32:53 51°16.996 2°44.847 -999 0.050955 0.28395 -1.035392
2008-11-07 08:32:58 51°17.01 2°44.83 -999 0.050955 0.283955 -1.035392
2008-11-07 08:33:03 51°17.023 2°44.812 -999 0.052087 0.290433 -1.070216
2008-11-07 08:33:07 51°17.034 2°44.798 -999 0.052087 0.290433 -1.070216
2008-11-07 08:33:13 51°17.05 2°44.776 -999 0.04972 0.276897 -1.035392
2008-11-07 08:33:18 51°17.064 2°44.759 -999 0.050646 0.2822 -1.070216
2008-11-07 08:33:23 51°17.078 2°44.742 -999 0.050132 0.279279 -1.035392
2008-11-07 08:33:28 51°17.091 2°44.724 -999 0.053013 0.295809 -1.035392
2008-11-07 08:33:33 51°17.105 2°44.708 -999 0.049926 0.278153 -1.070216
2008-11-07 08:33:38 51°17.119 2°44.69 -999 0.049926 0.278153 -1.070216
2008-11-07 08:33:43 51°17.133 2°44.673 -999 0.052499 0.292891 -1.070216
2008-11-07 08:33:48 51°17.147 2°44.655 -999 0.050235 0.279933 -1.070216
2008-11-07 08:33:53 51°17.161 2°44.639 -999 0.048794 0.271684 -1.070216
2008-11-07 08:33:58 51°17.175 2°44.622 -999 0.057644 0.322434 -1.070216
2008-11-07 08:34:03 51°17.189 2°44.605 -999 0.055586 0.310621 -1.035392
2008-11-07 08:34:08 51°17.202 2°44.588 -999 0.055586 0.310621 -1.035392
2008-11-07 08:34:13 51°17.217 2°44.572 -999 0.057335 0.320703 -1.070216
2008-11-07 08:34:18 51°17.23 2°44.554 -999 0.053013 0.295868 -1.070216
2008-11-07 08:34:23 51°17.244 2°44.537 -999 0.055174 0.308278 -1.070216
2008-11-07 08:34:28 51°17.258 2°44.52 -999 0.054042 0.301766 -1.070216
2008-11-07 08:34:33 51°17.272 2°44.503 -999 0.052087 0.290549 -1.070216
2008-11-07 08:34:38 51°17.285 2°44.486 -999 0.052087 0.290549 -1.070216
2008-11-07 08:34:43 51°17.299 2°44.469 -999 0.05291 0.295261 -1.035392
2008-11-07 08:34:48 51°17.313 2°44.452 -999 0.056615 0.316551 -1.070216
2008-11-07 08:34:53 51°17.327 2°44.435 -999 0.053322 0.297676 -1.070216
2008-11-07 08:34:58 51°17.34 2°44.418 -999 0.055689 0.311292 -1.035392
2008-11-07 08:35:03 51°17.354 2°44.401 -999 0.052499 0.293024 -1.035392
2008-11-07 08:35:08 51°17.368 2°44.384 -999 0.052499 0.293024 -1.035392
2008-11-07 08:35:13 51°17.382 2°44.366 -999 0.051161 0.28537 -1.070216
2008-11-07 08:35:18 51°17.395 2°44.349 -999 0.056203 0.31432 -1.035392
2008-11-07 08:35:23 51°17.409 2°44.332 -999 0.060526 0.339254 -1.070216
2008-11-07 08:35:28 51°17.423 2°44.315 -999 0.055277 0.309038 -1.070216
2008-11-07 08:35:33 51°17.436 2°44.298 -999 0.054969 0.307252 -1.070216
2008-11-07 08:35:38 51°17.45 2°44.281 -999 0.054969 0.307252 -1.070216
2008-11-07 08:35:43 51°17.464 2°44.264 -999 0.053939 0.301318 -1.035392
2008-11-07 08:35:48 51°17.478 2°44.247 -999 0.05466 0.305439 -1.035392
2008-11-07 08:35:53 51°17.491 2°44.23 -999 0.05219 0.291287 -1.070216
2008-11-07 08:35:58 51°17.505 2°44.212 -999 0.052499 0.293083 -1.035392
2008-11-07 08:36:03 51°17.519 2°44.196 -999 0.049103 0.273664 -1.035392
2008-11-07 08:36:08 51°17.532 2°44.178 -999 0.049103 0.273664 -1.035392
2008-11-07 08:36:13 51°17.546 2°44.161 -999 0.051573 0.287801 -1.035392
2008-11-07 08:36:18 51°17.559 2°44.143 -999 0.051984 0.29017 -1.035392
2008-11-07 08:36:23 51°17.573 2°44.126 -999 0.050132 0.279563 -1.070216
2008-11-07 08:36:28 51°17.586 2°44.109 -999 0.050543 0.281928 -1.035392
2008-11-07 08:36:33 51°17.6 2°44.091 -999 0.05219 0.291419 -1.035392
2008-11-07 08:36:38 51°17.613 2°44.074 -999 0.05219 0.291419 -1.035392
2008-11-07 08:36:43 51°17.627 2°44.057 -999 0.05147 0.287321 -1.070216
2008-11-07 08:36:48 51°17.64 2°44.039 -999 0.050132 0.279684 -1.035392
2008-11-07 08:36:53 51°17.654 2°44.022 -999 0.050543 0.282041 -1.035392
2008-11-07 08:36:58 51°17.667 2°44.004 -999 0.050646 0.28263 -1.035392
2008-11-07 08:37:03 51°17.681 2°43.987 -999 0.051367 0.286752 -1.070216
2008-11-07 08:37:08 51°17.695 2°43.97 -999 0.051367 0.286752 -1.070216
2008-11-07 08:37:13 51°17.708 2°43.953 -999 0.050338 0.280847 -1.035392
2008-11-07 08:37:18 51°17.721 2°43.934 -999 0.049514 0.276131 -1.070216
2008-11-07 08:37:23 51°17.735 2°43.918 -999 0.052705 0.294435 -1.070216
2008-11-07 08:37:28 51°17.748 2°43.9 -999 0.05219 0.291509 -1.070216
2008-11-07 08:37:33 51°17.761 2°43.883 -999 0.048897 0.272655 -1.070216
2008-11-07 08:37:38 51°17.775 2°43.865 -999 0.048897 0.272655 -1.070216
2008-11-07 08:37:43 51°17.788 2°43.848 -999 0.051778 0.289174 -1.070216
2008-11-07 08:37:48 51°17.801 2°43.831 -999 0.053837 0.301006 -1.035392
2008-11-07 08:37:53 51°17.815 2°43.813 -999 0.057438 0.321771 -1.035392
2008-11-07 08:37:58 51°17.828 2°43.797 -999 0.054557 0.305236 -1.070216
2008-11-07 08:38:03 51°17.842 2°43.779 -999 0.054042 0.302299 -1.070216
2008-11-07 08:38:08 51°17.855 2°43.763 -999 0.054042 0.302299 -1.070216
2008-11-07 08:38:13 51°17.868 2°43.745 -999 0.055792 0.312385 -1.035392
2008-11-07 08:38:18 51°17.881 2°43.727 -999 0.055277 0.309433 -1.035392
2008-11-07 08:38:23 51°17.895 2°43.71 -999 0.050338 0.281046 -1.035392
2008-11-07 08:38:28 51°17.908 2°43.692 -999 0.050338 0.281031 -1.035392
2008-11-07 08:38:33 51°17.921 2°43.674 -999 0.054557 0.305236 -1.070216
2008-11-07 08:38:38 51°17.934 2°43.657 -999 0.054557 0.305236 -1.070216
2008-11-07 08:38:43 51°17.947 2°43.639 -999 0.052396 0.292818 -1.035392
2008-11-07 08:38:48 51°17.96 2°43.621 -999 0.052602 0.293999 -1.035392
2008-11-07 08:38:53 51°17.974 2°43.604 -999 0.05147 0.287524 -1.035392
2008-11-07 08:38:58 51°17.986 2°43.586 -999 0.053219 0.297567 -1.035392
2008-11-07 08:39:03 51°18 2°43.569 -999 0.051881 0.289891 -1.070216
2008-11-07 08:39:08 51°18.013 2°43.552 -999 0.051881 0.289891 -1.070216
2008-11-07 08:39:13 51°18.027 2°43.535 -999 0.053013 0.296412 -1.070216
2008-11-07 08:39:18 51°18.04 2°43.518 -999 0.05785 0.324317 -1.070216
2008-11-07 08:39:23 51°18.054 2°43.501 -999 0.049 0.273497 -1.035392
2008-11-07 08:39:28 51°18.067 2°43.484 -999 0.051675 0.288857 -1.035392
2008-11-07 08:39:33 51°18.081 2°43.467 -999 0.049617 0.277052 -1.070216
2008-11-07 08:39:38 51°18.094 2°43.45 -999 0.049617 0.277052 -1.070216
2008-11-07 08:39:43 51°18.108 2°43.433 -999 0.052087 0.291215 -1.070216
2008-11-07 08:39:48 51°18.122 2°43.416 -999 0.049823 0.2782 -1.070216
2008-11-07 08:39:53 51°18.135 2°43.399 -999 0.050338 0.281148 -1.035392
2008-11-07 08:39:58 51°18.149 2°43.382 -999 0.049 0.273506 -1.070216
2008-11-07 08:40:03 51°18.163 2°43.365 -999 0.048279 0.269415 -1.070216
2008-11-07 08:40:08 51°18.177 2°43.348 -999 0.048279 0.269415 -1.070216
2008-11-07 08:40:13 51°18.191 2°43.331 -999 0.047456 0.264732 -1.070216
2008-11-07 08:40:18 51°18.205 2°43.314 -999 0.050543 0.282446 -1.070216
2008-11-07 08:40:23 51°18.219 2°43.297 -999 0.054969 0.307948 -1.070216
2008-11-07 08:40:27 51°18.23 2°43.283 -999 0.051367 0.287248 -1.070216
2008-11-07 08:40:33 51°18.246 2°43.262 -999 0.051881 0.29024 -1.035392
2008-11-07 08:40:38 51°18.259 2°43.244 -999 0.051881 0.29024 -1.035392
2008-11-07 08:40:43 51°18.272 2°43.225 -999 0.050852 0.284346 -1.035392
2008-11-07 08:40:48 51°18.285 2°43.208 -999 0.049823 0.278448 -1.070216
2008-11-07 08:40:53 51°18.298 2°43.188 -999 0.048279 0.26961 -1.070216
2008-11-07 08:40:58 51°18.311 2°43.17 -999 0.051058 0.285543 -1.070216
2008-11-07 08:41:03 51°18.324 2°43.151 -999 0.049617 0.277278 -1.035392
2008-11-07 08:41:08 51°18.336 2°43.132 -999 0.049617 0.277278 -1.035392
2008-11-07 08:41:13 51°18.349 2°43.113 -999 0.050338 0.281404 -1.070216
2008-11-07 08:41:18 51°18.362 2°43.094 -999 0.050029 0.279638 -1.035392
2008-11-07 08:41:23 51°18.375 2°43.074 -999 0.050749 0.283791 -1.035392
2008-11-07 08:41:28 51°18.387 2°43.055 -999 0.048691 0.272016 -1.070216
2008-11-07 08:41:33 51°18.399 2°43.035 -999 0.050235 0.28087 -1.070216
2008-11-07 08:41:38 51°18.412 2°43.015 -999 0.050235 0.28087 -1.070216
2008-11-07 08:41:43 51°18.424 2°42.996 -999 0.051675 0.289173 -1.070216
2008-11-07 08:41:48 51°18.436 2°42.975 -999 0.047662 0.266179 -1.035392
2008-11-07 08:41:53 51°18.448 2°42.955 -999 0.048588 0.271501 -1.035392
2008-11-07 08:41:58 51°18.46 2°42.934 -999 0.051367 0.287457 -1.070216
2008-11-07 08:42:03 51°18.472 2°42.914 -999 0.050029 0.279781 -1.070216
2008-11-07 08:42:08 51°18.483 2°42.893 -999 0.050029 0.279781 -1.070216
2008-11-07 08:42:13 51°18.494 2°42.872 -999 0.051675 0.289236 -1.035392
2008-11-07 08:42:18 51°18.505 2°42.85 -999 0.051778 0.289796 -1.070216
2008-11-07 08:42:23 51°18.516 2°42.829 -999 0.049206 0.275049 -1.035392
2008-11-07 08:42:27 51°18.524 2°42.811 -999 0.054248 0.304059 -1.035392
2008-11-07 08:42:33 51°18.536 2°42.784 -999 0.049926 0.279205 -1.070216
2008-11-07 08:42:38 51°18.546 2°42.762 -999 0.049926 0.279205 -1.070216
2008-11-07 08:42:43 51°18.555 2°42.739 -999 0.051881 0.290467 -1.070216
2008-11-07 08:42:48 51°18.564 2°42.717 -999 0.051161 0.286358 -1.035392
2008-11-07 08:42:53 51°18.573 2°42.693 -999 0.050029 0.279872 -1.070216